<?xml version="1.0" encoding="UTF-8" standalone="no" ?>
<gpx xmlns="http://www.topografix.com/GPX/1/1" xmlns:xsi="http://www.w3.org/2001/XMLSchema-instance" xsi:schemaLocation="http://www.topografix.com/GPX/1/1 http://www.topografix.com/GPX/1/1/gpx.xsd" version="1.1" creator="VisuGPX - https://www.visugpx.com">
  <metadata>
    <name>savel treffort le 29/06/15</name>
    <desc><![CDATA[parcours de savel a treffort le 29/06/15]]></desc>
  </metadata>
  <trk>
    <name><![CDATA[Roissard Autre]]></name>
    <trkseg>
      <trkpt lat="44.88329" lon="5.67983">
        <ele>484</ele>
        <time>2015-06-29T14:01:57.000Z</time>
      </trkpt>
      <trkpt lat="44.88357" lon="5.68027">
        <ele>484</ele>
        <time>2015-06-29T14:02:04.000Z</time>
      </trkpt>
      <trkpt lat="44.88386" lon="5.68069">
        <ele>484</ele>
        <time>2015-06-29T14:02:11.000Z</time>
      </trkpt>
      <trkpt lat="44.88412" lon="5.68102">
        <ele>484</ele>
        <time>2015-06-29T14:02:17.000Z</time>
      </trkpt>
      <trkpt lat="44.88433" lon="5.68129">
        <ele>484</ele>
        <time>2015-06-29T14:02:22.000Z</time>
      </trkpt>
      <trkpt lat="44.88444" lon="5.68145">
        <ele>484</ele>
        <time>2015-06-29T14:02:25.000Z</time>
      </trkpt>
      <trkpt lat="44.88447" lon="5.6815">
        <ele>484</ele>
        <time>2015-06-29T14:02:26.000Z</time>
      </trkpt>
      <trkpt lat="44.88447" lon="5.68162">
        <ele>484</ele>
        <time>2015-06-29T14:02:28.000Z</time>
      </trkpt>
      <trkpt lat="44.88442" lon="5.68165">
        <ele>484</ele>
        <time>2015-06-29T14:02:30.000Z</time>
      </trkpt>
      <trkpt lat="44.88436" lon="5.68161">
        <ele>484</ele>
        <time>2015-06-29T14:02:32.000Z</time>
      </trkpt>
      <trkpt lat="44.88434" lon="5.68158">
        <ele>484</ele>
        <time>2015-06-29T14:02:33.000Z</time>
      </trkpt>
      <trkpt lat="44.88432" lon="5.68141">
        <ele>484</ele>
        <time>2015-06-29T14:02:36.000Z</time>
      </trkpt>
      <trkpt lat="44.88437" lon="5.68121">
        <ele>484</ele>
        <time>2015-06-29T14:02:39.000Z</time>
      </trkpt>
      <trkpt lat="44.88438" lon="5.68114">
        <ele>484</ele>
        <time>2015-06-29T14:02:40.000Z</time>
      </trkpt>
      <trkpt lat="44.88446" lon="5.68081">
        <ele>484</ele>
        <time>2015-06-29T14:02:44.000Z</time>
      </trkpt>
      <trkpt lat="44.88448" lon="5.68073">
        <ele>484</ele>
        <time>2015-06-29T14:02:45.000Z</time>
      </trkpt>
      <trkpt lat="44.88459" lon="5.68034">
        <ele>484</ele>
        <time>2015-06-29T14:02:50.000Z</time>
      </trkpt>
      <trkpt lat="44.88472" lon="5.67999">
        <ele>484</ele>
        <time>2015-06-29T14:02:55.000Z</time>
      </trkpt>
      <trkpt lat="44.88478" lon="5.67984">
        <ele>484</ele>
        <time>2015-06-29T14:02:57.000Z</time>
      </trkpt>
      <trkpt lat="44.88485" lon="5.67964">
        <ele>484</ele>
        <time>2015-06-29T14:03:00.000Z</time>
      </trkpt>
      <trkpt lat="44.88485" lon="5.67963">
        <ele>484</ele>
        <time>2015-06-29T14:03:01.000Z</time>
      </trkpt>
      <trkpt lat="44.88495" lon="5.67926">
        <ele>484</ele>
        <time>2015-06-29T14:03:05.000Z</time>
      </trkpt>
      <trkpt lat="44.8851" lon="5.67875">
        <ele>484</ele>
        <time>2015-06-29T14:03:12.000Z</time>
      </trkpt>
      <trkpt lat="44.88526" lon="5.67821">
        <ele>484</ele>
        <time>2015-06-29T14:03:19.000Z</time>
      </trkpt>
      <trkpt lat="44.88537" lon="5.67795">
        <ele>484</ele>
        <time>2015-06-29T14:03:23.000Z</time>
      </trkpt>
      <trkpt lat="44.88542" lon="5.67781">
        <ele>484</ele>
        <time>2015-06-29T14:03:25.000Z</time>
      </trkpt>
      <trkpt lat="44.88549" lon="5.67753">
        <ele>484</ele>
        <time>2015-06-29T14:03:29.000Z</time>
      </trkpt>
      <trkpt lat="44.88551" lon="5.67746">
        <ele>484</ele>
        <time>2015-06-29T14:03:30.000Z</time>
      </trkpt>
      <trkpt lat="44.88552" lon="5.67723">
        <ele>484</ele>
        <time>2015-06-29T14:03:33.000Z</time>
      </trkpt>
      <trkpt lat="44.88546" lon="5.67711">
        <ele>484</ele>
        <time>2015-06-29T14:03:36.000Z</time>
      </trkpt>
      <trkpt lat="44.88541" lon="5.67719">
        <ele>484</ele>
        <time>2015-06-29T14:03:38.000Z</time>
      </trkpt>
      <trkpt lat="44.88541" lon="5.67735">
        <ele>484</ele>
        <time>2015-06-29T14:03:41.000Z</time>
      </trkpt>
      <trkpt lat="44.88542" lon="5.67755">
        <ele>484</ele>
        <time>2015-06-29T14:03:45.000Z</time>
      </trkpt>
      <trkpt lat="44.88542" lon="5.6776">
        <ele>484</ele>
        <time>2015-06-29T14:03:46.000Z</time>
      </trkpt>
      <trkpt lat="44.88544" lon="5.67782">
        <ele>484</ele>
        <time>2015-06-29T14:03:50.000Z</time>
      </trkpt>
      <trkpt lat="44.88546" lon="5.67805">
        <ele>484</ele>
        <time>2015-06-29T14:03:53.000Z</time>
      </trkpt>
      <trkpt lat="44.88546" lon="5.67813">
        <ele>484</ele>
        <time>2015-06-29T14:03:54.000Z</time>
      </trkpt>
      <trkpt lat="44.88543" lon="5.67839">
        <ele>484</ele>
        <time>2015-06-29T14:03:57.000Z</time>
      </trkpt>
      <trkpt lat="44.8854" lon="5.67856">
        <ele>484</ele>
        <time>2015-06-29T14:03:59.000Z</time>
      </trkpt>
      <trkpt lat="44.88539" lon="5.67875">
        <ele>484</ele>
        <time>2015-06-29T14:04:01.000Z</time>
      </trkpt>
      <trkpt lat="44.88539" lon="5.67896">
        <ele>484</ele>
        <time>2015-06-29T14:04:03.000Z</time>
      </trkpt>
      <trkpt lat="44.88549" lon="5.67934">
        <ele>484</ele>
        <time>2015-06-29T14:04:07.000Z</time>
      </trkpt>
      <trkpt lat="44.88557" lon="5.6796">
        <ele>484</ele>
        <time>2015-06-29T14:04:10.000Z</time>
      </trkpt>
      <trkpt lat="44.88563" lon="5.67976">
        <ele>484</ele>
        <time>2015-06-29T14:04:12.000Z</time>
      </trkpt>
      <trkpt lat="44.88582" lon="5.6801">
        <ele>484</ele>
        <time>2015-06-29T14:04:17.000Z</time>
      </trkpt>
      <trkpt lat="44.88585" lon="5.68015">
        <ele>484</ele>
        <time>2015-06-29T14:04:18.000Z</time>
      </trkpt>
      <trkpt lat="44.886" lon="5.68043">
        <ele>484</ele>
        <time>2015-06-29T14:04:23.000Z</time>
      </trkpt>
      <trkpt lat="44.88602" lon="5.68048">
        <ele>484</ele>
        <time>2015-06-29T14:04:24.000Z</time>
      </trkpt>
      <trkpt lat="44.886" lon="5.6806">
        <ele>484</ele>
        <time>2015-06-29T14:04:27.000Z</time>
      </trkpt>
      <trkpt lat="44.88594" lon="5.68055">
        <ele>484</ele>
        <time>2015-06-29T14:04:29.000Z</time>
      </trkpt>
      <trkpt lat="44.88592" lon="5.68046">
        <ele>484</ele>
        <time>2015-06-29T14:04:31.000Z</time>
      </trkpt>
      <trkpt lat="44.88589" lon="5.68029">
        <ele>484</ele>
        <time>2015-06-29T14:04:34.000Z</time>
      </trkpt>
      <trkpt lat="44.88595" lon="5.67998">
        <ele>484</ele>
        <time>2015-06-29T14:04:38.000Z</time>
      </trkpt>
      <trkpt lat="44.88598" lon="5.6799">
        <ele>484</ele>
        <time>2015-06-29T14:04:39.000Z</time>
      </trkpt>
      <trkpt lat="44.88605" lon="5.67964">
        <ele>484</ele>
        <time>2015-06-29T14:04:42.000Z</time>
      </trkpt>
      <trkpt lat="44.88613" lon="5.67926">
        <ele>484</ele>
        <time>2015-06-29T14:04:46.000Z</time>
      </trkpt>
      <trkpt lat="44.88623" lon="5.67897">
        <ele>484</ele>
        <time>2015-06-29T14:04:50.000Z</time>
      </trkpt>
      <trkpt lat="44.88628" lon="5.67882">
        <ele>484</ele>
        <time>2015-06-29T14:04:52.000Z</time>
      </trkpt>
      <trkpt lat="44.88636" lon="5.67861">
        <ele>484</ele>
        <time>2015-06-29T14:04:55.000Z</time>
      </trkpt>
      <trkpt lat="44.88655" lon="5.67808">
        <ele>484</ele>
        <time>2015-06-29T14:05:02.000Z</time>
      </trkpt>
      <trkpt lat="44.8868" lon="5.67746">
        <ele>484</ele>
        <time>2015-06-29T14:05:10.000Z</time>
      </trkpt>
      <trkpt lat="44.88689" lon="5.67721">
        <ele>484</ele>
        <time>2015-06-29T14:05:13.000Z</time>
      </trkpt>
      <trkpt lat="44.88693" lon="5.67704">
        <ele>484</ele>
        <time>2015-06-29T14:05:15.000Z</time>
      </trkpt>
      <trkpt lat="44.88696" lon="5.67685">
        <ele>484</ele>
        <time>2015-06-29T14:05:17.000Z</time>
      </trkpt>
      <trkpt lat="44.88696" lon="5.67668">
        <ele>484</ele>
        <time>2015-06-29T14:05:19.000Z</time>
      </trkpt>
      <trkpt lat="44.88695" lon="5.67646">
        <ele>484</ele>
        <time>2015-06-29T14:05:22.000Z</time>
      </trkpt>
      <trkpt lat="44.8869" lon="5.67636">
        <ele>484</ele>
        <time>2015-06-29T14:05:24.000Z</time>
      </trkpt>
      <trkpt lat="44.88683" lon="5.67638">
        <ele>484</ele>
        <time>2015-06-29T14:05:26.000Z</time>
      </trkpt>
      <trkpt lat="44.88681" lon="5.67652">
        <ele>484</ele>
        <time>2015-06-29T14:05:29.000Z</time>
      </trkpt>
      <trkpt lat="44.88679" lon="5.67668">
        <ele>484</ele>
        <time>2015-06-29T14:05:32.000Z</time>
      </trkpt>
      <trkpt lat="44.8868" lon="5.67675">
        <ele>484</ele>
        <time>2015-06-29T14:05:33.000Z</time>
      </trkpt>
      <trkpt lat="44.88681" lon="5.67681">
        <ele>484</ele>
        <time>2015-06-29T14:05:34.000Z</time>
      </trkpt>
      <trkpt lat="44.8869" lon="5.677">
        <ele>484</ele>
        <time>2015-06-29T14:05:37.000Z</time>
      </trkpt>
      <trkpt lat="44.88693" lon="5.67706">
        <ele>484</ele>
        <time>2015-06-29T14:05:38.000Z</time>
      </trkpt>
      <trkpt lat="44.8871" lon="5.67738">
        <ele>484</ele>
        <time>2015-06-29T14:05:43.000Z</time>
      </trkpt>
      <trkpt lat="44.88739" lon="5.67789">
        <ele>484</ele>
        <time>2015-06-29T14:05:51.000Z</time>
      </trkpt>
      <trkpt lat="44.8876" lon="5.67829">
        <ele>484</ele>
        <time>2015-06-29T14:05:57.000Z</time>
      </trkpt>
      <trkpt lat="44.8877" lon="5.67849">
        <ele>484</ele>
        <time>2015-06-29T14:06:00.000Z</time>
      </trkpt>
      <trkpt lat="44.88777" lon="5.67863">
        <ele>484</ele>
        <time>2015-06-29T14:06:02.000Z</time>
      </trkpt>
      <trkpt lat="44.88787" lon="5.67884">
        <ele>484</ele>
        <time>2015-06-29T14:06:05.000Z</time>
      </trkpt>
      <trkpt lat="44.88794" lon="5.67897">
        <ele>484</ele>
        <time>2015-06-29T14:06:07.000Z</time>
      </trkpt>
      <trkpt lat="44.88803" lon="5.67914">
        <ele>484</ele>
        <time>2015-06-29T14:06:10.000Z</time>
      </trkpt>
      <trkpt lat="44.88805" lon="5.67926">
        <ele>484</ele>
        <time>2015-06-29T14:06:12.000Z</time>
      </trkpt>
      <trkpt lat="44.88798" lon="5.67936">
        <ele>484</ele>
        <time>2015-06-29T14:06:15.000Z</time>
      </trkpt>
      <trkpt lat="44.8879" lon="5.67926">
        <ele>484</ele>
        <time>2015-06-29T14:06:18.000Z</time>
      </trkpt>
      <trkpt lat="44.88791" lon="5.679">
        <ele>484</ele>
        <time>2015-06-29T14:06:22.000Z</time>
      </trkpt>
      <trkpt lat="44.88793" lon="5.67892">
        <ele>484</ele>
        <time>2015-06-29T14:06:23.000Z</time>
      </trkpt>
      <trkpt lat="44.88801" lon="5.6787">
        <ele>484</ele>
        <time>2015-06-29T14:06:26.000Z</time>
      </trkpt>
      <trkpt lat="44.88807" lon="5.67856">
        <ele>484</ele>
        <time>2015-06-29T14:06:28.000Z</time>
      </trkpt>
      <trkpt lat="44.88812" lon="5.67842">
        <ele>484</ele>
        <time>2015-06-29T14:06:30.000Z</time>
      </trkpt>
      <trkpt lat="44.88815" lon="5.67834">
        <ele>484</ele>
        <time>2015-06-29T14:06:31.000Z</time>
      </trkpt>
      <trkpt lat="44.88835" lon="5.67782">
        <ele>484</ele>
        <time>2015-06-29T14:06:38.000Z</time>
      </trkpt>
      <trkpt lat="44.88855" lon="5.67729">
        <ele>484</ele>
        <time>2015-06-29T14:06:45.000Z</time>
      </trkpt>
      <trkpt lat="44.88862" lon="5.67708">
        <ele>484</ele>
        <time>2015-06-29T14:06:48.000Z</time>
      </trkpt>
      <trkpt lat="44.88867" lon="5.67695">
        <ele>484</ele>
        <time>2015-06-29T14:06:50.000Z</time>
      </trkpt>
      <trkpt lat="44.88873" lon="5.67676">
        <ele>484</ele>
        <time>2015-06-29T14:06:53.000Z</time>
      </trkpt>
      <trkpt lat="44.88873" lon="5.67663">
        <ele>484</ele>
        <time>2015-06-29T14:06:55.000Z</time>
      </trkpt>
      <trkpt lat="44.88865" lon="5.67654">
        <ele>484</ele>
        <time>2015-06-29T14:06:58.000Z</time>
      </trkpt>
      <trkpt lat="44.88857" lon="5.67666">
        <ele>484</ele>
        <time>2015-06-29T14:07:01.000Z</time>
      </trkpt>
      <trkpt lat="44.88858" lon="5.67691">
        <ele>484</ele>
        <time>2015-06-29T14:07:05.000Z</time>
      </trkpt>
      <trkpt lat="44.88864" lon="5.67711">
        <ele>484</ele>
        <time>2015-06-29T14:07:08.000Z</time>
      </trkpt>
      <trkpt lat="44.88867" lon="5.67718">
        <ele>484</ele>
        <time>2015-06-29T14:07:09.000Z</time>
      </trkpt>
      <trkpt lat="44.88884" lon="5.67745">
        <ele>484</ele>
        <time>2015-06-29T14:07:14.000Z</time>
      </trkpt>
      <trkpt lat="44.88907" lon="5.67787">
        <ele>484</ele>
        <time>2015-06-29T14:07:21.000Z</time>
      </trkpt>
      <trkpt lat="44.8893" lon="5.6783">
        <ele>484</ele>
        <time>2015-06-29T14:07:28.000Z</time>
      </trkpt>
      <trkpt lat="44.88949" lon="5.67874">
        <ele>484</ele>
        <time>2015-06-29T14:07:35.000Z</time>
      </trkpt>
      <trkpt lat="44.88954" lon="5.67886">
        <ele>484</ele>
        <time>2015-06-29T14:07:37.000Z</time>
      </trkpt>
      <trkpt lat="44.88955" lon="5.67897">
        <ele>484</ele>
        <time>2015-06-29T14:07:39.000Z</time>
      </trkpt>
      <trkpt lat="44.88949" lon="5.67905">
        <ele>484</ele>
        <time>2015-06-29T14:07:42.000Z</time>
      </trkpt>
      <trkpt lat="44.88944" lon="5.67894">
        <ele>484</ele>
        <time>2015-06-29T14:07:45.000Z</time>
      </trkpt>
      <trkpt lat="44.88944" lon="5.67867">
        <ele>484</ele>
        <time>2015-06-29T14:07:50.000Z</time>
      </trkpt>
      <trkpt lat="44.88949" lon="5.67853">
        <ele>484</ele>
        <time>2015-06-29T14:07:52.000Z</time>
      </trkpt>
      <trkpt lat="44.88956" lon="5.67829">
        <ele>484</ele>
        <time>2015-06-29T14:07:55.000Z</time>
      </trkpt>
      <trkpt lat="44.88959" lon="5.6782">
        <ele>484</ele>
        <time>2015-06-29T14:07:56.000Z</time>
      </trkpt>
      <trkpt lat="44.8897" lon="5.6779">
        <ele>484</ele>
        <time>2015-06-29T14:08:00.000Z</time>
      </trkpt>
      <trkpt lat="44.88989" lon="5.67735">
        <ele>484</ele>
        <time>2015-06-29T14:08:07.000Z</time>
      </trkpt>
      <trkpt lat="44.89002" lon="5.67682">
        <ele>484</ele>
        <time>2015-06-29T14:08:14.000Z</time>
      </trkpt>
      <trkpt lat="44.89001" lon="5.67666">
        <ele>484</ele>
        <time>2015-06-29T14:08:17.000Z</time>
      </trkpt>
      <trkpt lat="44.88994" lon="5.67667">
        <ele>484</ele>
        <time>2015-06-29T14:08:20.000Z</time>
      </trkpt>
      <trkpt lat="44.88993" lon="5.67676">
        <ele>484</ele>
        <time>2015-06-29T14:08:23.000Z</time>
      </trkpt>
      <trkpt lat="44.88989" lon="5.67693">
        <ele>484</ele>
        <time>2015-06-29T14:08:27.000Z</time>
      </trkpt>
      <trkpt lat="44.88993" lon="5.67715">
        <ele>484</ele>
        <time>2015-06-29T14:08:31.000Z</time>
      </trkpt>
      <trkpt lat="44.89003" lon="5.67741">
        <ele>484</ele>
        <time>2015-06-29T14:08:35.000Z</time>
      </trkpt>
      <trkpt lat="44.89007" lon="5.67748">
        <ele>484</ele>
        <time>2015-06-29T14:08:36.000Z</time>
      </trkpt>
      <trkpt lat="44.89012" lon="5.67754">
        <ele>484</ele>
        <time>2015-06-29T14:08:37.000Z</time>
      </trkpt>
      <trkpt lat="44.89024" lon="5.67773">
        <ele>484</ele>
        <time>2015-06-29T14:08:40.000Z</time>
      </trkpt>
      <trkpt lat="44.89043" lon="5.67806">
        <ele>484</ele>
        <time>2015-06-29T14:08:45.000Z</time>
      </trkpt>
      <trkpt lat="44.89055" lon="5.67826">
        <ele>484</ele>
        <time>2015-06-29T14:08:48.000Z</time>
      </trkpt>
      <trkpt lat="44.89066" lon="5.67848">
        <ele>484</ele>
        <time>2015-06-29T14:08:51.000Z</time>
      </trkpt>
      <trkpt lat="44.89093" lon="5.67896">
        <ele>484</ele>
        <time>2015-06-29T14:08:58.000Z</time>
      </trkpt>
      <trkpt lat="44.89108" lon="5.67922">
        <ele>484</ele>
        <time>2015-06-29T14:09:02.000Z</time>
      </trkpt>
      <trkpt lat="44.89112" lon="5.67928">
        <ele>484</ele>
        <time>2015-06-29T14:09:03.000Z</time>
      </trkpt>
      <trkpt lat="44.89129" lon="5.67956">
        <ele>484</ele>
        <time>2015-06-29T14:09:08.000Z</time>
      </trkpt>
      <trkpt lat="44.89131" lon="5.67961">
        <ele>484</ele>
        <time>2015-06-29T14:09:09.000Z</time>
      </trkpt>
      <trkpt lat="44.89128" lon="5.67971">
        <ele>484</ele>
        <time>2015-06-29T14:09:12.000Z</time>
      </trkpt>
      <trkpt lat="44.89121" lon="5.67966">
        <ele>484</ele>
        <time>2015-06-29T14:09:15.000Z</time>
      </trkpt>
      <trkpt lat="44.89119" lon="5.67968">
        <ele>484</ele>
        <time>2015-06-29T14:09:19.000Z</time>
      </trkpt>
      <trkpt lat="44.89119" lon="5.67968">
        <ele>484</ele>
        <time>2015-06-29T14:09:20.000Z</time>
      </trkpt>
      <trkpt lat="44.89117" lon="5.67966">
        <ele>484</ele>
        <time>2015-06-29T14:09:25.000Z</time>
      </trkpt>
      <trkpt lat="44.89113" lon="5.67968">
        <ele>484</ele>
        <time>2015-06-29T14:09:27.000Z</time>
      </trkpt>
      <trkpt lat="44.89113" lon="5.67961">
        <ele>484</ele>
        <time>2015-06-29T14:09:30.000Z</time>
      </trkpt>
      <trkpt lat="44.89112" lon="5.67957">
        <ele>484</ele>
        <time>2015-06-29T14:09:36.000Z</time>
      </trkpt>
      <trkpt lat="44.89112" lon="5.6795">
        <ele>484</ele>
        <time>2015-06-29T14:09:47.000Z</time>
      </trkpt>
      <trkpt lat="44.89106" lon="5.67946">
        <ele>484</ele>
        <time>2015-06-29T14:09:50.000Z</time>
      </trkpt>
      <trkpt lat="44.89102" lon="5.67927">
        <ele>484</ele>
        <time>2015-06-29T14:09:53.000Z</time>
      </trkpt>
      <trkpt lat="44.89101" lon="5.6792">
        <ele>484</ele>
        <time>2015-06-29T14:09:54.000Z</time>
      </trkpt>
      <trkpt lat="44.89094" lon="5.67887">
        <ele>484</ele>
        <time>2015-06-29T14:09:59.000Z</time>
      </trkpt>
      <trkpt lat="44.89082" lon="5.67844">
        <ele>484</ele>
        <time>2015-06-29T14:10:06.000Z</time>
      </trkpt>
      <trkpt lat="44.89079" lon="5.67832">
        <ele>484</ele>
        <time>2015-06-29T14:10:08.000Z</time>
      </trkpt>
      <trkpt lat="44.89077" lon="5.67812">
        <ele>484</ele>
        <time>2015-06-29T14:10:11.000Z</time>
      </trkpt>
      <trkpt lat="44.89077" lon="5.67805">
        <ele>484</ele>
        <time>2015-06-29T14:10:12.000Z</time>
      </trkpt>
      <trkpt lat="44.89075" lon="5.67783">
        <ele>484</ele>
        <time>2015-06-29T14:10:15.000Z</time>
      </trkpt>
      <trkpt lat="44.89073" lon="5.67759">
        <ele>484</ele>
        <time>2015-06-29T14:10:18.000Z</time>
      </trkpt>
      <trkpt lat="44.89074" lon="5.67743">
        <ele>484</ele>
        <time>2015-06-29T14:10:20.000Z</time>
      </trkpt>
      <trkpt lat="44.89075" lon="5.67735">
        <ele>484</ele>
        <time>2015-06-29T14:10:21.000Z</time>
      </trkpt>
      <trkpt lat="44.89081" lon="5.67704">
        <ele>484</ele>
        <time>2015-06-29T14:10:25.000Z</time>
      </trkpt>
      <trkpt lat="44.89075" lon="5.67678">
        <ele>484</ele>
        <time>2015-06-29T14:10:29.000Z</time>
      </trkpt>
      <trkpt lat="44.89068" lon="5.67677">
        <ele>484</ele>
        <time>2015-06-29T14:10:32.000Z</time>
      </trkpt>
      <trkpt lat="44.89065" lon="5.67692">
        <ele>484</ele>
        <time>2015-06-29T14:10:35.000Z</time>
      </trkpt>
      <trkpt lat="44.89065" lon="5.67698">
        <ele>484</ele>
        <time>2015-06-29T14:10:36.000Z</time>
      </trkpt>
      <trkpt lat="44.89062" lon="5.67721">
        <ele>484</ele>
        <time>2015-06-29T14:10:40.000Z</time>
      </trkpt>
      <trkpt lat="44.89068" lon="5.67746">
        <ele>484</ele>
        <time>2015-06-29T14:10:44.000Z</time>
      </trkpt>
      <trkpt lat="44.89071" lon="5.67753">
        <ele>484</ele>
        <time>2015-06-29T14:10:45.000Z</time>
      </trkpt>
      <trkpt lat="44.89085" lon="5.67781">
        <ele>484</ele>
        <time>2015-06-29T14:10:49.000Z</time>
      </trkpt>
      <trkpt lat="44.89103" lon="5.67827">
        <ele>484</ele>
        <time>2015-06-29T14:10:55.000Z</time>
      </trkpt>
      <trkpt lat="44.8911" lon="5.6784">
        <ele>484</ele>
        <time>2015-06-29T14:10:57.000Z</time>
      </trkpt>
      <trkpt lat="44.89121" lon="5.67858">
        <ele>484</ele>
        <time>2015-06-29T14:11:00.000Z</time>
      </trkpt>
      <trkpt lat="44.89143" lon="5.67898">
        <ele>484</ele>
        <time>2015-06-29T14:11:06.000Z</time>
      </trkpt>
      <trkpt lat="44.89169" lon="5.6794">
        <ele>484</ele>
        <time>2015-06-29T14:11:13.000Z</time>
      </trkpt>
      <trkpt lat="44.89172" lon="5.67945">
        <ele>484</ele>
        <time>2015-06-29T14:11:14.000Z</time>
      </trkpt>
      <trkpt lat="44.89175" lon="5.6796">
        <ele>484</ele>
        <time>2015-06-29T14:11:17.000Z</time>
      </trkpt>
      <trkpt lat="44.89172" lon="5.67966">
        <ele>484</ele>
        <time>2015-06-29T14:11:20.000Z</time>
      </trkpt>
      <trkpt lat="44.89167" lon="5.67966">
        <ele>484</ele>
        <time>2015-06-29T14:11:23.000Z</time>
      </trkpt>
      <trkpt lat="44.89166" lon="5.67968">
        <ele>484</ele>
        <time>2015-06-29T14:11:26.000Z</time>
      </trkpt>
      <trkpt lat="44.89166" lon="5.67966">
        <ele>484</ele>
        <time>2015-06-29T14:11:29.000Z</time>
      </trkpt>
      <trkpt lat="44.89163" lon="5.67966">
        <ele>484</ele>
        <time>2015-06-29T14:11:32.000Z</time>
      </trkpt>
      <trkpt lat="44.8916" lon="5.67966">
        <ele>484</ele>
        <time>2015-06-29T14:11:37.000Z</time>
      </trkpt>
      <trkpt lat="44.89158" lon="5.67964">
        <ele>484</ele>
        <time>2015-06-29T14:11:42.000Z</time>
      </trkpt>
      <trkpt lat="44.89157" lon="5.6796">
        <ele>484</ele>
        <time>2015-06-29T14:11:43.000Z</time>
      </trkpt>
      <trkpt lat="44.89156" lon="5.67937">
        <ele>484</ele>
        <time>2015-06-29T14:11:47.000Z</time>
      </trkpt>
      <trkpt lat="44.89157" lon="5.67909">
        <ele>484</ele>
        <time>2015-06-29T14:11:51.000Z</time>
      </trkpt>
      <trkpt lat="44.8916" lon="5.67894">
        <ele>484</ele>
        <time>2015-06-29T14:11:53.000Z</time>
      </trkpt>
      <trkpt lat="44.89166" lon="5.6787">
        <ele>484</ele>
        <time>2015-06-29T14:11:56.000Z</time>
      </trkpt>
      <trkpt lat="44.89168" lon="5.67863">
        <ele>484</ele>
        <time>2015-06-29T14:11:57.000Z</time>
      </trkpt>
      <trkpt lat="44.89175" lon="5.6784">
        <ele>484</ele>
        <time>2015-06-29T14:12:00.000Z</time>
      </trkpt>
      <trkpt lat="44.89189" lon="5.6778">
        <ele>484</ele>
        <time>2015-06-29T14:12:07.000Z</time>
      </trkpt>
      <trkpt lat="44.89199" lon="5.67713">
        <ele>484</ele>
        <time>2015-06-29T14:12:14.000Z</time>
      </trkpt>
      <trkpt lat="44.892" lon="5.67703">
        <ele>484</ele>
        <time>2015-06-29T14:12:15.000Z</time>
      </trkpt>
      <trkpt lat="44.89201" lon="5.67667">
        <ele>484</ele>
        <time>2015-06-29T14:12:19.000Z</time>
      </trkpt>
      <trkpt lat="44.89199" lon="5.67659">
        <ele>484</ele>
        <time>2015-06-29T14:12:20.000Z</time>
      </trkpt>
      <trkpt lat="44.89188" lon="5.6764">
        <ele>484</ele>
        <time>2015-06-29T14:12:23.000Z</time>
      </trkpt>
      <trkpt lat="44.89179" lon="5.67648">
        <ele>484</ele>
        <time>2015-06-29T14:12:25.000Z</time>
      </trkpt>
      <trkpt lat="44.89171" lon="5.67654">
        <ele>484</ele>
        <time>2015-06-29T14:12:27.000Z</time>
      </trkpt>
      <trkpt lat="44.89166" lon="5.67658">
        <ele>484</ele>
        <time>2015-06-29T14:12:30.000Z</time>
      </trkpt>
      <trkpt lat="44.89162" lon="5.67652">
        <ele>484</ele>
        <time>2015-06-29T14:12:34.000Z</time>
      </trkpt>
      <trkpt lat="44.89161" lon="5.6765">
        <ele>484</ele>
        <time>2015-06-29T14:12:35.000Z</time>
      </trkpt>
      <trkpt lat="44.89161" lon="5.67648">
        <ele>484</ele>
        <time>2015-06-29T14:12:40.000Z</time>
      </trkpt>
      <trkpt lat="44.89162" lon="5.67647">
        <ele>484</ele>
        <time>2015-06-29T14:12:43.000Z</time>
      </trkpt>
      <trkpt lat="44.89161" lon="5.67647">
        <ele>484</ele>
        <time>2015-06-29T14:12:44.000Z</time>
      </trkpt>
      <trkpt lat="44.89159" lon="5.67648">
        <ele>484</ele>
        <time>2015-06-29T14:12:47.000Z</time>
      </trkpt>
      <trkpt lat="44.89156" lon="5.67654">
        <ele>484</ele>
        <time>2015-06-29T14:12:49.000Z</time>
      </trkpt>
      <trkpt lat="44.89155" lon="5.67661">
        <ele>484</ele>
        <time>2015-06-29T14:12:50.000Z</time>
      </trkpt>
      <trkpt lat="44.89157" lon="5.67688">
        <ele>484</ele>
        <time>2015-06-29T14:12:54.000Z</time>
      </trkpt>
      <trkpt lat="44.89162" lon="5.67731">
        <ele>484</ele>
        <time>2015-06-29T14:12:59.000Z</time>
      </trkpt>
      <trkpt lat="44.89169" lon="5.67764">
        <ele>484</ele>
        <time>2015-06-29T14:13:03.000Z</time>
      </trkpt>
      <trkpt lat="44.89171" lon="5.6779">
        <ele>484</ele>
        <time>2015-06-29T14:13:06.000Z</time>
      </trkpt>
      <trkpt lat="44.89173" lon="5.67845">
        <ele>484</ele>
        <time>2015-06-29T14:13:12.000Z</time>
      </trkpt>
      <trkpt lat="44.89174" lon="5.67882">
        <ele>484</ele>
        <time>2015-06-29T14:13:17.000Z</time>
      </trkpt>
      <trkpt lat="44.89175" lon="5.67896">
        <ele>484</ele>
        <time>2015-06-29T14:13:19.000Z</time>
      </trkpt>
      <trkpt lat="44.89176" lon="5.67909">
        <ele>484</ele>
        <time>2015-06-29T14:13:21.000Z</time>
      </trkpt>
      <trkpt lat="44.89176" lon="5.67922">
        <ele>484</ele>
        <time>2015-06-29T14:13:23.000Z</time>
      </trkpt>
      <trkpt lat="44.89175" lon="5.67928">
        <ele>484</ele>
        <time>2015-06-29T14:13:24.000Z</time>
      </trkpt>
      <trkpt lat="44.89166" lon="5.67937">
        <ele>484</ele>
        <time>2015-06-29T14:13:27.000Z</time>
      </trkpt>
      <trkpt lat="44.89161" lon="5.67928">
        <ele>484</ele>
        <time>2015-06-29T14:13:29.000Z</time>
      </trkpt>
      <trkpt lat="44.89158" lon="5.67916">
        <ele>484</ele>
        <time>2015-06-29T14:13:31.000Z</time>
      </trkpt>
      <trkpt lat="44.89156" lon="5.67911">
        <ele>484</ele>
        <time>2015-06-29T14:13:32.000Z</time>
      </trkpt>
      <trkpt lat="44.89151" lon="5.67895">
        <ele>484</ele>
        <time>2015-06-29T14:13:35.000Z</time>
      </trkpt>
      <trkpt lat="44.89146" lon="5.67878">
        <ele>484</ele>
        <time>2015-06-29T14:13:38.000Z</time>
      </trkpt>
      <trkpt lat="44.89143" lon="5.67862">
        <ele>484</ele>
        <time>2015-06-29T14:13:40.000Z</time>
      </trkpt>
      <trkpt lat="44.89141" lon="5.67836">
        <ele>484</ele>
        <time>2015-06-29T14:13:43.000Z</time>
      </trkpt>
      <trkpt lat="44.89142" lon="5.67819">
        <ele>484</ele>
        <time>2015-06-29T14:13:45.000Z</time>
      </trkpt>
      <trkpt lat="44.89142" lon="5.67794">
        <ele>484</ele>
        <time>2015-06-29T14:13:48.000Z</time>
      </trkpt>
      <trkpt lat="44.89139" lon="5.67777">
        <ele>484</ele>
        <time>2015-06-29T14:13:50.000Z</time>
      </trkpt>
      <trkpt lat="44.89131" lon="5.67743">
        <ele>484</ele>
        <time>2015-06-29T14:13:54.000Z</time>
      </trkpt>
      <trkpt lat="44.89129" lon="5.67724">
        <ele>484</ele>
        <time>2015-06-29T14:13:56.000Z</time>
      </trkpt>
      <trkpt lat="44.89128" lon="5.67714">
        <ele>484</ele>
        <time>2015-06-29T14:13:57.000Z</time>
      </trkpt>
      <trkpt lat="44.89127" lon="5.67698">
        <ele>484</ele>
        <time>2015-06-29T14:13:59.000Z</time>
      </trkpt>
      <trkpt lat="44.89126" lon="5.67692">
        <ele>484</ele>
        <time>2015-06-29T14:14:00.000Z</time>
      </trkpt>
      <trkpt lat="44.89114" lon="5.67676">
        <ele>484</ele>
        <time>2015-06-29T14:14:03.000Z</time>
      </trkpt>
      <trkpt lat="44.89107" lon="5.67677">
        <ele>484</ele>
        <time>2015-06-29T14:14:06.000Z</time>
      </trkpt>
      <trkpt lat="44.89105" lon="5.67687">
        <ele>484</ele>
        <time>2015-06-29T14:14:09.000Z</time>
      </trkpt>
      <trkpt lat="44.89102" lon="5.67695">
        <ele>484</ele>
        <time>2015-06-29T14:14:11.000Z</time>
      </trkpt>
      <trkpt lat="44.89099" lon="5.67704">
        <ele>484</ele>
        <time>2015-06-29T14:14:13.000Z</time>
      </trkpt>
      <trkpt lat="44.89098" lon="5.6771">
        <ele>484</ele>
        <time>2015-06-29T14:14:14.000Z</time>
      </trkpt>
      <trkpt lat="44.89098" lon="5.67725">
        <ele>484</ele>
        <time>2015-06-29T14:14:16.000Z</time>
      </trkpt>
      <trkpt lat="44.89108" lon="5.67754">
        <ele>484</ele>
        <time>2015-06-29T14:14:20.000Z</time>
      </trkpt>
      <trkpt lat="44.89131" lon="5.67807">
        <ele>484</ele>
        <time>2015-06-29T14:14:27.000Z</time>
      </trkpt>
      <trkpt lat="44.8914" lon="5.67827">
        <ele>484</ele>
        <time>2015-06-29T14:14:30.000Z</time>
      </trkpt>
      <trkpt lat="44.89147" lon="5.67842">
        <ele>484</ele>
        <time>2015-06-29T14:14:32.000Z</time>
      </trkpt>
      <trkpt lat="44.89163" lon="5.67877">
        <ele>484</ele>
        <time>2015-06-29T14:14:37.000Z</time>
      </trkpt>
      <trkpt lat="44.89184" lon="5.67918">
        <ele>484</ele>
        <time>2015-06-29T14:14:43.000Z</time>
      </trkpt>
      <trkpt lat="44.89204" lon="5.67962">
        <ele>484</ele>
        <time>2015-06-29T14:14:49.000Z</time>
      </trkpt>
      <trkpt lat="44.89211" lon="5.67977">
        <ele>484</ele>
        <time>2015-06-29T14:14:51.000Z</time>
      </trkpt>
      <trkpt lat="44.89221" lon="5.67996">
        <ele>484</ele>
        <time>2015-06-29T14:14:54.000Z</time>
      </trkpt>
      <trkpt lat="44.89253" lon="5.6805">
        <ele>484</ele>
        <time>2015-06-29T14:15:02.000Z</time>
      </trkpt>
      <trkpt lat="44.8928" lon="5.68099">
        <ele>484</ele>
        <time>2015-06-29T14:15:09.000Z</time>
      </trkpt>
      <trkpt lat="44.89301" lon="5.68128">
        <ele>484</ele>
        <time>2015-06-29T14:15:14.000Z</time>
      </trkpt>
      <trkpt lat="44.8931" lon="5.68139">
        <ele>484</ele>
        <time>2015-06-29T14:15:17.000Z</time>
      </trkpt>
      <trkpt lat="44.89311" lon="5.68143">
        <ele>484</ele>
        <time>2015-06-29T14:15:18.000Z</time>
      </trkpt>
      <trkpt lat="44.8931" lon="5.68148">
        <ele>484</ele>
        <time>2015-06-29T14:15:21.000Z</time>
      </trkpt>
      <trkpt lat="44.89304" lon="5.68145">
        <ele>484</ele>
        <time>2015-06-29T14:15:24.000Z</time>
      </trkpt>
      <trkpt lat="44.89305" lon="5.68142">
        <ele>484</ele>
        <time>2015-06-29T14:15:26.000Z</time>
      </trkpt>
      <trkpt lat="44.89304" lon="5.68142">
        <ele>484</ele>
        <time>2015-06-29T14:15:29.000Z</time>
      </trkpt>
      <trkpt lat="44.89303" lon="5.68142">
        <ele>484</ele>
        <time>2015-06-29T14:15:30.000Z</time>
      </trkpt>
      <trkpt lat="44.89301" lon="5.68143">
        <ele>484</ele>
        <time>2015-06-29T14:15:34.000Z</time>
      </trkpt>
      <trkpt lat="44.89299" lon="5.68141">
        <ele>484</ele>
        <time>2015-06-29T14:15:39.000Z</time>
      </trkpt>
      <trkpt lat="44.89297" lon="5.6814">
        <ele>484</ele>
        <time>2015-06-29T14:15:41.000Z</time>
      </trkpt>
      <trkpt lat="44.89293" lon="5.68134">
        <ele>484</ele>
        <time>2015-06-29T14:15:44.000Z</time>
      </trkpt>
      <trkpt lat="44.89294" lon="5.68117">
        <ele>484</ele>
        <time>2015-06-29T14:15:47.000Z</time>
      </trkpt>
      <trkpt lat="44.89292" lon="5.68093">
        <ele>484</ele>
        <time>2015-06-29T14:15:51.000Z</time>
      </trkpt>
      <trkpt lat="44.89299" lon="5.68054">
        <ele>484</ele>
        <time>2015-06-29T14:15:56.000Z</time>
      </trkpt>
      <trkpt lat="44.89314" lon="5.68015">
        <ele>484</ele>
        <time>2015-06-29T14:16:01.000Z</time>
      </trkpt>
      <trkpt lat="44.89328" lon="5.67977">
        <ele>484</ele>
        <time>2015-06-29T14:16:06.000Z</time>
      </trkpt>
      <trkpt lat="44.8933" lon="5.67968">
        <ele>484</ele>
        <time>2015-06-29T14:16:07.000Z</time>
      </trkpt>
      <trkpt lat="44.89347" lon="5.67923">
        <ele>484</ele>
        <time>2015-06-29T14:16:13.000Z</time>
      </trkpt>
      <trkpt lat="44.89361" lon="5.67877">
        <ele>484</ele>
        <time>2015-06-29T14:16:19.000Z</time>
      </trkpt>
      <trkpt lat="44.89368" lon="5.67856">
        <ele>484</ele>
        <time>2015-06-29T14:16:22.000Z</time>
      </trkpt>
      <trkpt lat="44.89372" lon="5.67842">
        <ele>484</ele>
        <time>2015-06-29T14:16:24.000Z</time>
      </trkpt>
      <trkpt lat="44.8938" lon="5.67819">
        <ele>484</ele>
        <time>2015-06-29T14:16:27.000Z</time>
      </trkpt>
      <trkpt lat="44.89389" lon="5.678">
        <ele>484</ele>
        <time>2015-06-29T14:16:30.000Z</time>
      </trkpt>
      <trkpt lat="44.89391" lon="5.67793">
        <ele>484</ele>
        <time>2015-06-29T14:16:31.000Z</time>
      </trkpt>
      <trkpt lat="44.89397" lon="5.67769">
        <ele>484</ele>
        <time>2015-06-29T14:16:34.000Z</time>
      </trkpt>
      <trkpt lat="44.89408" lon="5.67735">
        <ele>484</ele>
        <time>2015-06-29T14:16:38.000Z</time>
      </trkpt>
      <trkpt lat="44.89414" lon="5.67718">
        <ele>484</ele>
        <time>2015-06-29T14:16:40.000Z</time>
      </trkpt>
      <trkpt lat="44.89427" lon="5.67681">
        <ele>484</ele>
        <time>2015-06-29T14:16:45.000Z</time>
      </trkpt>
      <trkpt lat="44.89428" lon="5.67674">
        <ele>484</ele>
        <time>2015-06-29T14:16:46.000Z</time>
      </trkpt>
      <trkpt lat="44.89424" lon="5.67656">
        <ele>484</ele>
        <time>2015-06-29T14:16:50.000Z</time>
      </trkpt>
      <trkpt lat="44.89418" lon="5.67663">
        <ele>484</ele>
        <time>2015-06-29T14:16:52.000Z</time>
      </trkpt>
      <trkpt lat="44.89418" lon="5.67672">
        <ele>484</ele>
        <time>2015-06-29T14:16:54.000Z</time>
      </trkpt>
      <trkpt lat="44.89417" lon="5.67677">
        <ele>484</ele>
        <time>2015-06-29T14:16:55.000Z</time>
      </trkpt>
      <trkpt lat="44.89417" lon="5.677">
        <ele>484</ele>
        <time>2015-06-29T14:16:59.000Z</time>
      </trkpt>
      <trkpt lat="44.8942" lon="5.67729">
        <ele>484</ele>
        <time>2015-06-29T14:17:03.000Z</time>
      </trkpt>
      <trkpt lat="44.89429" lon="5.6776">
        <ele>484</ele>
        <time>2015-06-29T14:17:07.000Z</time>
      </trkpt>
      <trkpt lat="44.89432" lon="5.67769">
        <ele>484</ele>
        <time>2015-06-29T14:17:08.000Z</time>
      </trkpt>
      <trkpt lat="44.89441" lon="5.67794">
        <ele>484</ele>
        <time>2015-06-29T14:17:11.000Z</time>
      </trkpt>
      <trkpt lat="44.89446" lon="5.67809">
        <ele>484</ele>
        <time>2015-06-29T14:17:13.000Z</time>
      </trkpt>
      <trkpt lat="44.89459" lon="5.67848">
        <ele>484</ele>
        <time>2015-06-29T14:17:18.000Z</time>
      </trkpt>
      <trkpt lat="44.89462" lon="5.67857">
        <ele>484</ele>
        <time>2015-06-29T14:17:19.000Z</time>
      </trkpt>
      <trkpt lat="44.89478" lon="5.67904">
        <ele>484</ele>
        <time>2015-06-29T14:17:25.000Z</time>
      </trkpt>
      <trkpt lat="44.89497" lon="5.67947">
        <ele>484</ele>
        <time>2015-06-29T14:17:31.000Z</time>
      </trkpt>
      <trkpt lat="44.89516" lon="5.67988">
        <ele>484</ele>
        <time>2015-06-29T14:17:37.000Z</time>
      </trkpt>
      <trkpt lat="44.89529" lon="5.68016">
        <ele>484</ele>
        <time>2015-06-29T14:17:41.000Z</time>
      </trkpt>
      <trkpt lat="44.89537" lon="5.68035">
        <ele>484</ele>
        <time>2015-06-29T14:17:44.000Z</time>
      </trkpt>
      <trkpt lat="44.89539" lon="5.68047">
        <ele>484</ele>
        <time>2015-06-29T14:17:46.000Z</time>
      </trkpt>
      <trkpt lat="44.89537" lon="5.68053">
        <ele>484</ele>
        <time>2015-06-29T14:17:47.000Z</time>
      </trkpt>
      <trkpt lat="44.89529" lon="5.68055">
        <ele>484</ele>
        <time>2015-06-29T14:17:50.000Z</time>
      </trkpt>
      <trkpt lat="44.89528" lon="5.68049">
        <ele>484</ele>
        <time>2015-06-29T14:17:52.000Z</time>
      </trkpt>
      <trkpt lat="44.89528" lon="5.68047">
        <ele>484</ele>
        <time>2015-06-29T14:17:53.000Z</time>
      </trkpt>
      <trkpt lat="44.89526" lon="5.68041">
        <ele>484</ele>
        <time>2015-06-29T14:17:55.000Z</time>
      </trkpt>
      <trkpt lat="44.89524" lon="5.68039">
        <ele>484</ele>
        <time>2015-06-29T14:17:57.000Z</time>
      </trkpt>
      <trkpt lat="44.89522" lon="5.68043">
        <ele>484</ele>
        <time>2015-06-29T14:18:01.000Z</time>
      </trkpt>
      <trkpt lat="44.8952" lon="5.68044">
        <ele>484</ele>
        <time>2015-06-29T14:18:06.000Z</time>
      </trkpt>
      <trkpt lat="44.89519" lon="5.68042">
        <ele>484</ele>
        <time>2015-06-29T14:18:07.000Z</time>
      </trkpt>
      <trkpt lat="44.89517" lon="5.68025">
        <ele>484</ele>
        <time>2015-06-29T14:18:10.000Z</time>
      </trkpt>
      <trkpt lat="44.89522" lon="5.67995">
        <ele>484</ele>
        <time>2015-06-29T14:18:14.000Z</time>
      </trkpt>
      <trkpt lat="44.89531" lon="5.67968">
        <ele>484</ele>
        <time>2015-06-29T14:18:17.000Z</time>
      </trkpt>
      <trkpt lat="44.89536" lon="5.67951">
        <ele>484</ele>
        <time>2015-06-29T14:18:19.000Z</time>
      </trkpt>
      <trkpt lat="44.89545" lon="5.67917">
        <ele>484</ele>
        <time>2015-06-29T14:18:23.000Z</time>
      </trkpt>
      <trkpt lat="44.89555" lon="5.67896">
        <ele>484</ele>
        <time>2015-06-29T14:18:26.000Z</time>
      </trkpt>
      <trkpt lat="44.89558" lon="5.6789">
        <ele>484</ele>
        <time>2015-06-29T14:18:27.000Z</time>
      </trkpt>
      <trkpt lat="44.89567" lon="5.67873">
        <ele>484</ele>
        <time>2015-06-29T14:18:30.000Z</time>
      </trkpt>
      <trkpt lat="44.89574" lon="5.67859">
        <ele>484</ele>
        <time>2015-06-29T14:18:32.000Z</time>
      </trkpt>
      <trkpt lat="44.89599" lon="5.67806">
        <ele>484</ele>
        <time>2015-06-29T14:18:40.000Z</time>
      </trkpt>
      <trkpt lat="44.89617" lon="5.67759">
        <ele>484</ele>
        <time>2015-06-29T14:18:46.000Z</time>
      </trkpt>
      <trkpt lat="44.89634" lon="5.67719">
        <ele>484</ele>
        <time>2015-06-29T14:18:51.000Z</time>
      </trkpt>
      <trkpt lat="44.89647" lon="5.67689">
        <ele>484</ele>
        <time>2015-06-29T14:18:55.000Z</time>
      </trkpt>
      <trkpt lat="44.89654" lon="5.67676">
        <ele>484</ele>
        <time>2015-06-29T14:18:57.000Z</time>
      </trkpt>
      <trkpt lat="44.8966" lon="5.67663">
        <ele>484</ele>
        <time>2015-06-29T14:18:59.000Z</time>
      </trkpt>
      <trkpt lat="44.89664" lon="5.67649">
        <ele>484</ele>
        <time>2015-06-29T14:19:01.000Z</time>
      </trkpt>
      <trkpt lat="44.89665" lon="5.67642">
        <ele>484</ele>
        <time>2015-06-29T14:19:02.000Z</time>
      </trkpt>
      <trkpt lat="44.89659" lon="5.67621">
        <ele>484</ele>
        <time>2015-06-29T14:19:06.000Z</time>
      </trkpt>
      <trkpt lat="44.89653" lon="5.6763">
        <ele>484</ele>
        <time>2015-06-29T14:19:08.000Z</time>
      </trkpt>
      <trkpt lat="44.89651" lon="5.67639">
        <ele>484</ele>
        <time>2015-06-29T14:19:11.000Z</time>
      </trkpt>
      <trkpt lat="44.89649" lon="5.67642">
        <ele>484</ele>
        <time>2015-06-29T14:19:12.000Z</time>
      </trkpt>
      <trkpt lat="44.89646" lon="5.67662">
        <ele>484</ele>
        <time>2015-06-29T14:19:16.000Z</time>
      </trkpt>
      <trkpt lat="44.89653" lon="5.67699">
        <ele>484</ele>
        <time>2015-06-29T14:19:21.000Z</time>
      </trkpt>
      <trkpt lat="44.89656" lon="5.67706">
        <ele>484</ele>
        <time>2015-06-29T14:19:22.000Z</time>
      </trkpt>
      <trkpt lat="44.89665" lon="5.67727">
        <ele>484</ele>
        <time>2015-06-29T14:19:25.000Z</time>
      </trkpt>
      <trkpt lat="44.89669" lon="5.67733">
        <ele>484</ele>
        <time>2015-06-29T14:19:26.000Z</time>
      </trkpt>
      <trkpt lat="44.89695" lon="5.67777">
        <ele>484</ele>
        <time>2015-06-29T14:19:33.000Z</time>
      </trkpt>
      <trkpt lat="44.89722" lon="5.67822">
        <ele>484</ele>
        <time>2015-06-29T14:19:40.000Z</time>
      </trkpt>
      <trkpt lat="44.89733" lon="5.6784">
        <ele>484</ele>
        <time>2015-06-29T14:19:43.000Z</time>
      </trkpt>
      <trkpt lat="44.8974" lon="5.67854">
        <ele>484</ele>
        <time>2015-06-29T14:19:45.000Z</time>
      </trkpt>
      <trkpt lat="44.89753" lon="5.67882">
        <ele>484</ele>
        <time>2015-06-29T14:19:49.000Z</time>
      </trkpt>
      <trkpt lat="44.89762" lon="5.67905">
        <ele>484</ele>
        <time>2015-06-29T14:19:52.000Z</time>
      </trkpt>
      <trkpt lat="44.89764" lon="5.67913">
        <ele>484</ele>
        <time>2015-06-29T14:19:53.000Z</time>
      </trkpt>
      <trkpt lat="44.89768" lon="5.67938">
        <ele>484</ele>
        <time>2015-06-29T14:19:56.000Z</time>
      </trkpt>
      <trkpt lat="44.89768" lon="5.67965">
        <ele>484</ele>
        <time>2015-06-29T14:20:00.000Z</time>
      </trkpt>
      <trkpt lat="44.89766" lon="5.6797">
        <ele>484</ele>
        <time>2015-06-29T14:20:01.000Z</time>
      </trkpt>
      <trkpt lat="44.8976" lon="5.67972">
        <ele>484</ele>
        <time>2015-06-29T14:20:04.000Z</time>
      </trkpt>
      <trkpt lat="44.89755" lon="5.6796">
        <ele>484</ele>
        <time>2015-06-29T14:20:08.000Z</time>
      </trkpt>
      <trkpt lat="44.89746" lon="5.67951">
        <ele>484</ele>
        <time>2015-06-29T14:20:12.000Z</time>
      </trkpt>
      <trkpt lat="44.89739" lon="5.67933">
        <ele>484</ele>
        <time>2015-06-29T14:20:15.000Z</time>
      </trkpt>
      <trkpt lat="44.8974" lon="5.67903">
        <ele>484</ele>
        <time>2015-06-29T14:20:19.000Z</time>
      </trkpt>
      <trkpt lat="44.89744" lon="5.67887">
        <ele>484</ele>
        <time>2015-06-29T14:20:21.000Z</time>
      </trkpt>
      <trkpt lat="44.89751" lon="5.67865">
        <ele>484</ele>
        <time>2015-06-29T14:20:24.000Z</time>
      </trkpt>
      <trkpt lat="44.89761" lon="5.67838">
        <ele>484</ele>
        <time>2015-06-29T14:20:28.000Z</time>
      </trkpt>
      <trkpt lat="44.89766" lon="5.67824">
        <ele>484</ele>
        <time>2015-06-29T14:20:30.000Z</time>
      </trkpt>
      <trkpt lat="44.89783" lon="5.67782">
        <ele>484</ele>
        <time>2015-06-29T14:20:36.000Z</time>
      </trkpt>
      <trkpt lat="44.89805" lon="5.67739">
        <ele>484</ele>
        <time>2015-06-29T14:20:42.000Z</time>
      </trkpt>
      <trkpt lat="44.89824" lon="5.677">
        <ele>484</ele>
        <time>2015-06-29T14:20:48.000Z</time>
      </trkpt>
      <trkpt lat="44.89843" lon="5.67654">
        <ele>484</ele>
        <time>2015-06-29T14:20:55.000Z</time>
      </trkpt>
      <trkpt lat="44.89847" lon="5.67641">
        <ele>484</ele>
        <time>2015-06-29T14:20:57.000Z</time>
      </trkpt>
      <trkpt lat="44.89853" lon="5.67621">
        <ele>484</ele>
        <time>2015-06-29T14:21:00.000Z</time>
      </trkpt>
      <trkpt lat="44.89863" lon="5.67589">
        <ele>484</ele>
        <time>2015-06-29T14:21:05.000Z</time>
      </trkpt>
      <trkpt lat="44.89863" lon="5.67578">
        <ele>484</ele>
        <time>2015-06-29T14:21:07.000Z</time>
      </trkpt>
      <trkpt lat="44.89857" lon="5.67575">
        <ele>484</ele>
        <time>2015-06-29T14:21:10.000Z</time>
      </trkpt>
      <trkpt lat="44.89854" lon="5.67583">
        <ele>484</ele>
        <time>2015-06-29T14:21:12.000Z</time>
      </trkpt>
      <trkpt lat="44.89853" lon="5.67589">
        <ele>484</ele>
        <time>2015-06-29T14:21:15.000Z</time>
      </trkpt>
      <trkpt lat="44.8985" lon="5.67586">
        <ele>484</ele>
        <time>2015-06-29T14:21:20.000Z</time>
      </trkpt>
      <trkpt lat="44.8985" lon="5.67586">
        <ele>484</ele>
        <time>2015-06-29T14:21:21.000Z</time>
      </trkpt>
      <trkpt lat="44.89848" lon="5.67587">
        <ele>484</ele>
        <time>2015-06-29T14:21:25.000Z</time>
      </trkpt>
      <trkpt lat="44.89847" lon="5.67596">
        <ele>484</ele>
        <time>2015-06-29T14:21:29.000Z</time>
      </trkpt>
      <trkpt lat="44.89851" lon="5.67612">
        <ele>484</ele>
        <time>2015-06-29T14:21:33.000Z</time>
      </trkpt>
      <trkpt lat="44.89855" lon="5.67637">
        <ele>484</ele>
        <time>2015-06-29T14:21:38.000Z</time>
      </trkpt>
      <trkpt lat="44.89855" lon="5.67647">
        <ele>484</ele>
        <time>2015-06-29T14:21:40.000Z</time>
      </trkpt>
      <trkpt lat="44.89853" lon="5.67656">
        <ele>484</ele>
        <time>2015-06-29T14:21:42.000Z</time>
      </trkpt>
      <trkpt lat="44.89848" lon="5.67681">
        <ele>484</ele>
        <time>2015-06-29T14:21:46.000Z</time>
      </trkpt>
      <trkpt lat="44.89847" lon="5.67688">
        <ele>484</ele>
        <time>2015-06-29T14:21:47.000Z</time>
      </trkpt>
      <trkpt lat="44.89844" lon="5.67699">
        <ele>484</ele>
        <time>2015-06-29T14:21:49.000Z</time>
      </trkpt>
      <trkpt lat="44.89841" lon="5.67713">
        <ele>484</ele>
        <time>2015-06-29T14:21:51.000Z</time>
      </trkpt>
      <trkpt lat="44.89847" lon="5.67744">
        <ele>484</ele>
        <time>2015-06-29T14:21:55.000Z</time>
      </trkpt>
      <trkpt lat="44.8985" lon="5.67752">
        <ele>484</ele>
        <time>2015-06-29T14:21:56.000Z</time>
      </trkpt>
      <trkpt lat="44.89868" lon="5.67798">
        <ele>484</ele>
        <time>2015-06-29T14:22:02.000Z</time>
      </trkpt>
      <trkpt lat="44.89891" lon="5.67852">
        <ele>484</ele>
        <time>2015-06-29T14:22:09.000Z</time>
      </trkpt>
      <trkpt lat="44.89915" lon="5.67908">
        <ele>484</ele>
        <time>2015-06-29T14:22:16.000Z</time>
      </trkpt>
      <trkpt lat="44.89921" lon="5.67923">
        <ele>484</ele>
        <time>2015-06-29T14:22:18.000Z</time>
      </trkpt>
      <trkpt lat="44.89928" lon="5.67943">
        <ele>484</ele>
        <time>2015-06-29T14:22:21.000Z</time>
      </trkpt>
      <trkpt lat="44.89929" lon="5.6795">
        <ele>484</ele>
        <time>2015-06-29T14:22:22.000Z</time>
      </trkpt>
      <trkpt lat="44.89927" lon="5.67966">
        <ele>484</ele>
        <time>2015-06-29T14:22:25.000Z</time>
      </trkpt>
      <trkpt lat="44.89918" lon="5.67965">
        <ele>484</ele>
        <time>2015-06-29T14:22:28.000Z</time>
      </trkpt>
      <trkpt lat="44.89911" lon="5.67957">
        <ele>484</ele>
        <time>2015-06-29T14:22:32.000Z</time>
      </trkpt>
      <trkpt lat="44.89902" lon="5.67948">
        <ele>484</ele>
        <time>2015-06-29T14:22:36.000Z</time>
      </trkpt>
      <trkpt lat="44.89899" lon="5.67928">
        <ele>484</ele>
        <time>2015-06-29T14:22:39.000Z</time>
      </trkpt>
      <trkpt lat="44.89899" lon="5.6792">
        <ele>484</ele>
        <time>2015-06-29T14:22:40.000Z</time>
      </trkpt>
      <trkpt lat="44.89906" lon="5.67885">
        <ele>484</ele>
        <time>2015-06-29T14:22:44.000Z</time>
      </trkpt>
      <trkpt lat="44.89915" lon="5.67841">
        <ele>484</ele>
        <time>2015-06-29T14:22:49.000Z</time>
      </trkpt>
      <trkpt lat="44.89915" lon="5.67832">
        <ele>484</ele>
        <time>2015-06-29T14:22:50.000Z</time>
      </trkpt>
      <trkpt lat="44.8992" lon="5.67786">
        <ele>484</ele>
        <time>2015-06-29T14:22:55.000Z</time>
      </trkpt>
      <trkpt lat="44.89927" lon="5.67732">
        <ele>484</ele>
        <time>2015-06-29T14:23:01.000Z</time>
      </trkpt>
      <trkpt lat="44.89927" lon="5.67722">
        <ele>484</ele>
        <time>2015-06-29T14:23:02.000Z</time>
      </trkpt>
      <trkpt lat="44.89926" lon="5.67662">
        <ele>484</ele>
        <time>2015-06-29T14:23:08.000Z</time>
      </trkpt>
      <trkpt lat="44.89929" lon="5.67616">
        <ele>484</ele>
        <time>2015-06-29T14:23:13.000Z</time>
      </trkpt>
      <trkpt lat="44.89931" lon="5.67609">
        <ele>484</ele>
        <time>2015-06-29T14:23:14.000Z</time>
      </trkpt>
      <trkpt lat="44.89937" lon="5.67586">
        <ele>484</ele>
        <time>2015-06-29T14:23:17.000Z</time>
      </trkpt>
      <trkpt lat="44.89939" lon="5.67579">
        <ele>484</ele>
        <time>2015-06-29T14:23:18.000Z</time>
      </trkpt>
      <trkpt lat="44.89943" lon="5.67562">
        <ele>484</ele>
        <time>2015-06-29T14:23:20.000Z</time>
      </trkpt>
      <trkpt lat="44.89943" lon="5.67546">
        <ele>484</ele>
        <time>2015-06-29T14:23:22.000Z</time>
      </trkpt>
      <trkpt lat="44.89935" lon="5.67533">
        <ele>484</ele>
        <time>2015-06-29T14:23:25.000Z</time>
      </trkpt>
      <trkpt lat="44.89929" lon="5.6754">
        <ele>484</ele>
        <time>2015-06-29T14:23:27.000Z</time>
      </trkpt>
      <trkpt lat="44.89927" lon="5.67554">
        <ele>484</ele>
        <time>2015-06-29T14:23:30.000Z</time>
      </trkpt>
      <trkpt lat="44.89926" lon="5.6756">
        <ele>484</ele>
        <time>2015-06-29T14:23:31.000Z</time>
      </trkpt>
      <trkpt lat="44.89925" lon="5.6758">
        <ele>484</ele>
        <time>2015-06-29T14:23:34.000Z</time>
      </trkpt>
      <trkpt lat="44.89932" lon="5.67603">
        <ele>484</ele>
        <time>2015-06-29T14:23:37.000Z</time>
      </trkpt>
      <trkpt lat="44.8995" lon="5.67651">
        <ele>484</ele>
        <time>2015-06-29T14:23:43.000Z</time>
      </trkpt>
      <trkpt lat="44.8996" lon="5.67695">
        <ele>484</ele>
        <time>2015-06-29T14:23:48.000Z</time>
      </trkpt>
      <trkpt lat="44.89963" lon="5.67703">
        <ele>484</ele>
        <time>2015-06-29T14:23:49.000Z</time>
      </trkpt>
      <trkpt lat="44.89971" lon="5.67729">
        <ele>484</ele>
        <time>2015-06-29T14:23:52.000Z</time>
      </trkpt>
      <trkpt lat="44.89971" lon="5.67757">
        <ele>484</ele>
        <time>2015-06-29T14:23:55.000Z</time>
      </trkpt>
      <trkpt lat="44.89972" lon="5.67784">
        <ele>484</ele>
        <time>2015-06-29T14:23:58.000Z</time>
      </trkpt>
      <trkpt lat="44.89975" lon="5.67802">
        <ele>484</ele>
        <time>2015-06-29T14:24:00.000Z</time>
      </trkpt>
      <trkpt lat="44.89985" lon="5.67827">
        <ele>484</ele>
        <time>2015-06-29T14:24:03.000Z</time>
      </trkpt>
      <trkpt lat="44.89993" lon="5.67842">
        <ele>484</ele>
        <time>2015-06-29T14:24:05.000Z</time>
      </trkpt>
      <trkpt lat="44.90014" lon="5.67872">
        <ele>484</ele>
        <time>2015-06-29T14:24:10.000Z</time>
      </trkpt>
      <trkpt lat="44.90017" lon="5.67877">
        <ele>484</ele>
        <time>2015-06-29T14:24:11.000Z</time>
      </trkpt>
      <trkpt lat="44.90035" lon="5.6791">
        <ele>484</ele>
        <time>2015-06-29T14:24:16.000Z</time>
      </trkpt>
      <trkpt lat="44.90043" lon="5.67922">
        <ele>484</ele>
        <time>2015-06-29T14:24:18.000Z</time>
      </trkpt>
      <trkpt lat="44.90053" lon="5.67942">
        <ele>484</ele>
        <time>2015-06-29T14:24:21.000Z</time>
      </trkpt>
      <trkpt lat="44.90056" lon="5.6797">
        <ele>484</ele>
        <time>2015-06-29T14:24:25.000Z</time>
      </trkpt>
      <trkpt lat="44.90047" lon="5.67977">
        <ele>484</ele>
        <time>2015-06-29T14:24:28.000Z</time>
      </trkpt>
      <trkpt lat="44.90044" lon="5.67969">
        <ele>484</ele>
        <time>2015-06-29T14:24:30.000Z</time>
      </trkpt>
      <trkpt lat="44.90039" lon="5.67954">
        <ele>484</ele>
        <time>2015-06-29T14:24:33.000Z</time>
      </trkpt>
      <trkpt lat="44.90038" lon="5.67948">
        <ele>484</ele>
        <time>2015-06-29T14:24:34.000Z</time>
      </trkpt>
      <trkpt lat="44.90038" lon="5.67941">
        <ele>484</ele>
        <time>2015-06-29T14:24:35.000Z</time>
      </trkpt>
      <trkpt lat="44.90046" lon="5.67909">
        <ele>484</ele>
        <time>2015-06-29T14:24:39.000Z</time>
      </trkpt>
      <trkpt lat="44.90049" lon="5.67901">
        <ele>484</ele>
        <time>2015-06-29T14:24:40.000Z</time>
      </trkpt>
      <trkpt lat="44.90062" lon="5.67873">
        <ele>484</ele>
        <time>2015-06-29T14:24:44.000Z</time>
      </trkpt>
      <trkpt lat="44.90071" lon="5.67853">
        <ele>484</ele>
        <time>2015-06-29T14:24:47.000Z</time>
      </trkpt>
      <trkpt lat="44.90077" lon="5.67839">
        <ele>484</ele>
        <time>2015-06-29T14:24:49.000Z</time>
      </trkpt>
      <trkpt lat="44.90097" lon="5.67785">
        <ele>484</ele>
        <time>2015-06-29T14:24:56.000Z</time>
      </trkpt>
      <trkpt lat="44.90117" lon="5.67738">
        <ele>484</ele>
        <time>2015-06-29T14:25:02.000Z</time>
      </trkpt>
      <trkpt lat="44.90139" lon="5.67694">
        <ele>484</ele>
        <time>2015-06-29T14:25:08.000Z</time>
      </trkpt>
      <trkpt lat="44.90146" lon="5.67681">
        <ele>484</ele>
        <time>2015-06-29T14:25:10.000Z</time>
      </trkpt>
      <trkpt lat="44.90156" lon="5.6766">
        <ele>484</ele>
        <time>2015-06-29T14:25:13.000Z</time>
      </trkpt>
      <trkpt lat="44.90179" lon="5.67609">
        <ele>484</ele>
        <time>2015-06-29T14:25:20.000Z</time>
      </trkpt>
      <trkpt lat="44.90207" lon="5.67549">
        <ele>484</ele>
        <time>2015-06-29T14:25:28.000Z</time>
      </trkpt>
      <trkpt lat="44.90232" lon="5.67486">
        <ele>484</ele>
        <time>2015-06-29T14:25:35.000Z</time>
      </trkpt>
      <trkpt lat="44.90235" lon="5.67448">
        <ele>484</ele>
        <time>2015-06-29T14:25:39.000Z</time>
      </trkpt>
      <trkpt lat="44.90234" lon="5.67439">
        <ele>484</ele>
        <time>2015-06-29T14:25:40.000Z</time>
      </trkpt>
      <trkpt lat="44.90228" lon="5.67414">
        <ele>484</ele>
        <time>2015-06-29T14:25:43.000Z</time>
      </trkpt>
      <trkpt lat="44.90218" lon="5.67403">
        <ele>484</ele>
        <time>2015-06-29T14:25:46.000Z</time>
      </trkpt>
      <trkpt lat="44.90209" lon="5.67409">
        <ele>484</ele>
        <time>2015-06-29T14:25:49.000Z</time>
      </trkpt>
      <trkpt lat="44.90206" lon="5.67428">
        <ele>484</ele>
        <time>2015-06-29T14:25:52.000Z</time>
      </trkpt>
      <trkpt lat="44.90205" lon="5.6744">
        <ele>484</ele>
        <time>2015-06-29T14:25:54.000Z</time>
      </trkpt>
      <trkpt lat="44.90208" lon="5.67453">
        <ele>484</ele>
        <time>2015-06-29T14:25:56.000Z</time>
      </trkpt>
      <trkpt lat="44.90221" lon="5.67499">
        <ele>484</ele>
        <time>2015-06-29T14:26:02.000Z</time>
      </trkpt>
      <trkpt lat="44.90225" lon="5.67516">
        <ele>484</ele>
        <time>2015-06-29T14:26:04.000Z</time>
      </trkpt>
      <trkpt lat="44.90226" lon="5.67537">
        <ele>484</ele>
        <time>2015-06-29T14:26:06.000Z</time>
      </trkpt>
      <trkpt lat="44.90223" lon="5.67563">
        <ele>484</ele>
        <time>2015-06-29T14:26:09.000Z</time>
      </trkpt>
      <trkpt lat="44.90222" lon="5.67571">
        <ele>484</ele>
        <time>2015-06-29T14:26:10.000Z</time>
      </trkpt>
      <trkpt lat="44.90222" lon="5.67585">
        <ele>484</ele>
        <time>2015-06-29T14:26:12.000Z</time>
      </trkpt>
      <trkpt lat="44.90224" lon="5.6759">
        <ele>484</ele>
        <time>2015-06-29T14:26:13.000Z</time>
      </trkpt>
      <trkpt lat="44.90236" lon="5.67618">
        <ele>484</ele>
        <time>2015-06-29T14:26:18.000Z</time>
      </trkpt>
      <trkpt lat="44.9024" lon="5.67623">
        <ele>484</ele>
        <time>2015-06-29T14:26:19.000Z</time>
      </trkpt>
      <trkpt lat="44.90255" lon="5.67646">
        <ele>484</ele>
        <time>2015-06-29T14:26:24.000Z</time>
      </trkpt>
      <trkpt lat="44.90261" lon="5.67657">
        <ele>484</ele>
        <time>2015-06-29T14:26:26.000Z</time>
      </trkpt>
      <trkpt lat="44.90266" lon="5.67676">
        <ele>484</ele>
        <time>2015-06-29T14:26:29.000Z</time>
      </trkpt>
      <trkpt lat="44.9027" lon="5.67689">
        <ele>484</ele>
        <time>2015-06-29T14:26:31.000Z</time>
      </trkpt>
      <trkpt lat="44.90282" lon="5.67714">
        <ele>484</ele>
        <time>2015-06-29T14:26:35.000Z</time>
      </trkpt>
      <trkpt lat="44.90299" lon="5.67752">
        <ele>484</ele>
        <time>2015-06-29T14:26:41.000Z</time>
      </trkpt>
      <trkpt lat="44.90302" lon="5.67759">
        <ele>484</ele>
        <time>2015-06-29T14:26:42.000Z</time>
      </trkpt>
      <trkpt lat="44.9032" lon="5.678">
        <ele>484</ele>
        <time>2015-06-29T14:26:48.000Z</time>
      </trkpt>
      <trkpt lat="44.90325" lon="5.67824">
        <ele>484</ele>
        <time>2015-06-29T14:26:52.000Z</time>
      </trkpt>
      <trkpt lat="44.90319" lon="5.6783">
        <ele>484</ele>
        <time>2015-06-29T14:26:55.000Z</time>
      </trkpt>
      <trkpt lat="44.90315" lon="5.67819">
        <ele>484</ele>
        <time>2015-06-29T14:26:58.000Z</time>
      </trkpt>
      <trkpt lat="44.9031" lon="5.6781">
        <ele>484</ele>
        <time>2015-06-29T14:27:02.000Z</time>
      </trkpt>
      <trkpt lat="44.90309" lon="5.67809">
        <ele>484</ele>
        <time>2015-06-29T14:27:03.000Z</time>
      </trkpt>
      <trkpt lat="44.90309" lon="5.67811">
        <ele>484</ele>
        <time>2015-06-29T14:27:04.000Z</time>
      </trkpt>
      <trkpt lat="44.90309" lon="5.67811">
        <ele>484</ele>
        <time>2015-06-29T14:27:06.000Z</time>
      </trkpt>
      <trkpt lat="44.90305" lon="5.67811">
        <ele>484</ele>
        <time>2015-06-29T14:27:13.000Z</time>
      </trkpt>
      <trkpt lat="44.90302" lon="5.6781">
        <ele>484</ele>
        <time>2015-06-29T14:27:17.000Z</time>
      </trkpt>
      <trkpt lat="44.90299" lon="5.67801">
        <ele>484</ele>
        <time>2015-06-29T14:27:19.000Z</time>
      </trkpt>
      <trkpt lat="44.90303" lon="5.67779">
        <ele>484</ele>
        <time>2015-06-29T14:27:22.000Z</time>
      </trkpt>
      <trkpt lat="44.90313" lon="5.67758">
        <ele>484</ele>
        <time>2015-06-29T14:27:25.000Z</time>
      </trkpt>
      <trkpt lat="44.90321" lon="5.67744">
        <ele>484</ele>
        <time>2015-06-29T14:27:27.000Z</time>
      </trkpt>
      <trkpt lat="44.90334" lon="5.67716">
        <ele>484</ele>
        <time>2015-06-29T14:27:31.000Z</time>
      </trkpt>
      <trkpt lat="44.90337" lon="5.67709">
        <ele>484</ele>
        <time>2015-06-29T14:27:32.000Z</time>
      </trkpt>
      <trkpt lat="44.90356" lon="5.67665">
        <ele>484</ele>
        <time>2015-06-29T14:27:38.000Z</time>
      </trkpt>
      <trkpt lat="44.90359" lon="5.67659">
        <ele>484</ele>
        <time>2015-06-29T14:27:39.000Z</time>
      </trkpt>
      <trkpt lat="44.90374" lon="5.6763">
        <ele>484</ele>
        <time>2015-06-29T14:27:43.000Z</time>
      </trkpt>
      <trkpt lat="44.9038" lon="5.67616">
        <ele>484</ele>
        <time>2015-06-29T14:27:45.000Z</time>
      </trkpt>
      <trkpt lat="44.90394" lon="5.67588">
        <ele>484</ele>
        <time>2015-06-29T14:27:49.000Z</time>
      </trkpt>
      <trkpt lat="44.90397" lon="5.67581">
        <ele>484</ele>
        <time>2015-06-29T14:27:50.000Z</time>
      </trkpt>
      <trkpt lat="44.90405" lon="5.67558">
        <ele>484</ele>
        <time>2015-06-29T14:27:53.000Z</time>
      </trkpt>
      <trkpt lat="44.9041" lon="5.67542">
        <ele>484</ele>
        <time>2015-06-29T14:27:55.000Z</time>
      </trkpt>
      <trkpt lat="44.90431" lon="5.67495">
        <ele>484</ele>
        <time>2015-06-29T14:28:01.000Z</time>
      </trkpt>
      <trkpt lat="44.90453" lon="5.67449">
        <ele>484</ele>
        <time>2015-06-29T14:28:07.000Z</time>
      </trkpt>
      <trkpt lat="44.90467" lon="5.67407">
        <ele>484</ele>
        <time>2015-06-29T14:28:13.000Z</time>
      </trkpt>
      <trkpt lat="44.90465" lon="5.67394">
        <ele>484</ele>
        <time>2015-06-29T14:28:16.000Z</time>
      </trkpt>
      <trkpt lat="44.90457" lon="5.67401">
        <ele>484</ele>
        <time>2015-06-29T14:28:19.000Z</time>
      </trkpt>
      <trkpt lat="44.90457" lon="5.67415">
        <ele>484</ele>
        <time>2015-06-29T14:28:22.000Z</time>
      </trkpt>
      <trkpt lat="44.90454" lon="5.67444">
        <ele>484</ele>
        <time>2015-06-29T14:28:27.000Z</time>
      </trkpt>
      <trkpt lat="44.90453" lon="5.67465">
        <ele>484</ele>
        <time>2015-06-29T14:28:30.000Z</time>
      </trkpt>
      <trkpt lat="44.90455" lon="5.67472">
        <ele>484</ele>
        <time>2015-06-29T14:28:31.000Z</time>
      </trkpt>
      <trkpt lat="44.90468" lon="5.67509">
        <ele>484</ele>
        <time>2015-06-29T14:28:36.000Z</time>
      </trkpt>
      <trkpt lat="44.90487" lon="5.67569">
        <ele>484</ele>
        <time>2015-06-29T14:28:43.000Z</time>
      </trkpt>
      <trkpt lat="44.9049" lon="5.67577">
        <ele>484</ele>
        <time>2015-06-29T14:28:44.000Z</time>
      </trkpt>
      <trkpt lat="44.90508" lon="5.67639">
        <ele>484</ele>
        <time>2015-06-29T14:28:51.000Z</time>
      </trkpt>
      <trkpt lat="44.9051" lon="5.67648">
        <ele>484</ele>
        <time>2015-06-29T14:28:52.000Z</time>
      </trkpt>
      <trkpt lat="44.90519" lon="5.67682">
        <ele>484</ele>
        <time>2015-06-29T14:28:56.000Z</time>
      </trkpt>
      <trkpt lat="44.90522" lon="5.6769">
        <ele>484</ele>
        <time>2015-06-29T14:28:57.000Z</time>
      </trkpt>
      <trkpt lat="44.9053" lon="5.67713">
        <ele>484</ele>
        <time>2015-06-29T14:29:00.000Z</time>
      </trkpt>
      <trkpt lat="44.90535" lon="5.67737">
        <ele>484</ele>
        <time>2015-06-29T14:29:03.000Z</time>
      </trkpt>
      <trkpt lat="44.90536" lon="5.67745">
        <ele>484</ele>
        <time>2015-06-29T14:29:04.000Z</time>
      </trkpt>
      <trkpt lat="44.90537" lon="5.67767">
        <ele>484</ele>
        <time>2015-06-29T14:29:07.000Z</time>
      </trkpt>
      <trkpt lat="44.9053" lon="5.67781">
        <ele>484</ele>
        <time>2015-06-29T14:29:10.000Z</time>
      </trkpt>
      <trkpt lat="44.90526" lon="5.67775">
        <ele>484</ele>
        <time>2015-06-29T14:29:12.000Z</time>
      </trkpt>
      <trkpt lat="44.90527" lon="5.67766">
        <ele>484</ele>
        <time>2015-06-29T14:29:15.000Z</time>
      </trkpt>
      <trkpt lat="44.90527" lon="5.67762">
        <ele>484</ele>
        <time>2015-06-29T14:29:16.000Z</time>
      </trkpt>
      <trkpt lat="44.90527" lon="5.67756">
        <ele>484</ele>
        <time>2015-06-29T14:29:19.000Z</time>
      </trkpt>
      <trkpt lat="44.90527" lon="5.67755">
        <ele>484</ele>
        <time>2015-06-29T14:29:21.000Z</time>
      </trkpt>
      <trkpt lat="44.90525" lon="5.67756">
        <ele>484</ele>
        <time>2015-06-29T14:29:26.000Z</time>
      </trkpt>
      <trkpt lat="44.9052" lon="5.67754">
        <ele>484</ele>
        <time>2015-06-29T14:29:32.000Z</time>
      </trkpt>
      <trkpt lat="44.9052" lon="5.67736">
        <ele>484</ele>
        <time>2015-06-29T14:29:35.000Z</time>
      </trkpt>
      <trkpt lat="44.90526" lon="5.67707">
        <ele>484</ele>
        <time>2015-06-29T14:29:39.000Z</time>
      </trkpt>
      <trkpt lat="44.90541" lon="5.67681">
        <ele>484</ele>
        <time>2015-06-29T14:29:43.000Z</time>
      </trkpt>
      <trkpt lat="44.90569" lon="5.67634">
        <ele>484</ele>
        <time>2015-06-29T14:29:50.000Z</time>
      </trkpt>
      <trkpt lat="44.9059" lon="5.67602">
        <ele>484</ele>
        <time>2015-06-29T14:29:55.000Z</time>
      </trkpt>
      <trkpt lat="44.90613" lon="5.67562">
        <ele>484</ele>
        <time>2015-06-29T14:30:01.000Z</time>
      </trkpt>
      <trkpt lat="44.90634" lon="5.67528">
        <ele>484</ele>
        <time>2015-06-29T14:30:06.000Z</time>
      </trkpt>
      <trkpt lat="44.90651" lon="5.67501">
        <ele>484</ele>
        <time>2015-06-29T14:30:10.000Z</time>
      </trkpt>
      <trkpt lat="44.9066" lon="5.67487">
        <ele>484</ele>
        <time>2015-06-29T14:30:12.000Z</time>
      </trkpt>
      <trkpt lat="44.9069" lon="5.67438">
        <ele>484</ele>
        <time>2015-06-29T14:30:19.000Z</time>
      </trkpt>
      <trkpt lat="44.90715" lon="5.67395">
        <ele>484</ele>
        <time>2015-06-29T14:30:25.000Z</time>
      </trkpt>
      <trkpt lat="44.90743" lon="5.67353">
        <ele>484</ele>
        <time>2015-06-29T14:30:31.000Z</time>
      </trkpt>
      <trkpt lat="44.90772" lon="5.67305">
        <ele>484</ele>
        <time>2015-06-29T14:30:38.000Z</time>
      </trkpt>
      <trkpt lat="44.90789" lon="5.67278">
        <ele>484</ele>
        <time>2015-06-29T14:30:43.000Z</time>
      </trkpt>
      <trkpt lat="44.9079" lon="5.67273">
        <ele>484</ele>
        <time>2015-06-29T14:30:44.000Z</time>
      </trkpt>
      <trkpt lat="44.90787" lon="5.67266">
        <ele>484</ele>
        <time>2015-06-29T14:30:47.000Z</time>
      </trkpt>
      <trkpt lat="44.90779" lon="5.67274">
        <ele>484</ele>
        <time>2015-06-29T14:30:50.000Z</time>
      </trkpt>
      <trkpt lat="44.90778" lon="5.67276">
        <ele>484</ele>
        <time>2015-06-29T14:30:51.000Z</time>
      </trkpt>
      <trkpt lat="44.90776" lon="5.67281">
        <ele>484</ele>
        <time>2015-06-29T14:30:54.000Z</time>
      </trkpt>
      <trkpt lat="44.90774" lon="5.67282">
        <ele>484</ele>
        <time>2015-06-29T14:30:55.000Z</time>
      </trkpt>
      <trkpt lat="44.9076" lon="5.67292">
        <ele>484</ele>
        <time>2015-06-29T14:30:59.000Z</time>
      </trkpt>
      <trkpt lat="44.90758" lon="5.67281">
        <ele>484</ele>
        <time>2015-06-29T14:31:10.000Z</time>
      </trkpt>
      <trkpt lat="44.90759" lon="5.67279">
        <ele>484</ele>
        <time>2015-06-29T14:31:12.000Z</time>
      </trkpt>
      <trkpt lat="44.9076" lon="5.67279">
        <ele>484</ele>
        <time>2015-06-29T14:31:16.000Z</time>
      </trkpt>
      <trkpt lat="44.90759" lon="5.67281">
        <ele>484</ele>
        <time>2015-06-29T14:31:17.000Z</time>
      </trkpt>
      <trkpt lat="44.9076" lon="5.67284">
        <ele>484</ele>
        <time>2015-06-29T14:31:19.000Z</time>
      </trkpt>
      <trkpt lat="44.90755" lon="5.67292">
        <ele>484</ele>
        <time>2015-06-29T14:31:24.000Z</time>
      </trkpt>
      <trkpt lat="44.90754" lon="5.67305">
        <ele>484</ele>
        <time>2015-06-29T14:31:27.000Z</time>
      </trkpt>
      <trkpt lat="44.90752" lon="5.67309">
        <ele>484</ele>
        <time>2015-06-29T14:31:28.000Z</time>
      </trkpt>
      <trkpt lat="44.90744" lon="5.67336">
        <ele>484</ele>
        <time>2015-06-29T14:31:32.000Z</time>
      </trkpt>
      <trkpt lat="44.90745" lon="5.67365">
        <ele>484</ele>
        <time>2015-06-29T14:31:35.000Z</time>
      </trkpt>
      <trkpt lat="44.90746" lon="5.67374">
        <ele>484</ele>
        <time>2015-06-29T14:31:36.000Z</time>
      </trkpt>
      <trkpt lat="44.90749" lon="5.67412">
        <ele>484</ele>
        <time>2015-06-29T14:31:40.000Z</time>
      </trkpt>
      <trkpt lat="44.90748" lon="5.67422">
        <ele>484</ele>
        <time>2015-06-29T14:31:41.000Z</time>
      </trkpt>
      <trkpt lat="44.90743" lon="5.6745">
        <ele>484</ele>
        <time>2015-06-29T14:31:44.000Z</time>
      </trkpt>
      <trkpt lat="44.90743" lon="5.6746">
        <ele>484</ele>
        <time>2015-06-29T14:31:45.000Z</time>
      </trkpt>
      <trkpt lat="44.90748" lon="5.67493">
        <ele>484</ele>
        <time>2015-06-29T14:31:49.000Z</time>
      </trkpt>
      <trkpt lat="44.90761" lon="5.67556">
        <ele>484</ele>
        <time>2015-06-29T14:31:56.000Z</time>
      </trkpt>
      <trkpt lat="44.90767" lon="5.67581">
        <ele>484</ele>
        <time>2015-06-29T14:31:59.000Z</time>
      </trkpt>
      <trkpt lat="44.90767" lon="5.67597">
        <ele>484</ele>
        <time>2015-06-29T14:32:01.000Z</time>
      </trkpt>
      <trkpt lat="44.90761" lon="5.67613">
        <ele>484</ele>
        <time>2015-06-29T14:32:04.000Z</time>
      </trkpt>
      <trkpt lat="44.90755" lon="5.67612">
        <ele>484</ele>
        <time>2015-06-29T14:32:06.000Z</time>
      </trkpt>
      <trkpt lat="44.90751" lon="5.67608">
        <ele>484</ele>
        <time>2015-06-29T14:32:08.000Z</time>
      </trkpt>
      <trkpt lat="44.9075" lon="5.67607">
        <ele>484</ele>
        <time>2015-06-29T14:32:10.000Z</time>
      </trkpt>
      <trkpt lat="44.90747" lon="5.67609">
        <ele>484</ele>
        <time>2015-06-29T14:32:14.000Z</time>
      </trkpt>
      <trkpt lat="44.90743" lon="5.67608">
        <ele>484</ele>
        <time>2015-06-29T14:32:21.000Z</time>
      </trkpt>
      <trkpt lat="44.90743" lon="5.67604">
        <ele>484</ele>
        <time>2015-06-29T14:32:22.000Z</time>
      </trkpt>
      <trkpt lat="44.90743" lon="5.67593">
        <ele>484</ele>
        <time>2015-06-29T14:32:24.000Z</time>
      </trkpt>
      <trkpt lat="44.9075" lon="5.67555">
        <ele>484</ele>
        <time>2015-06-29T14:32:29.000Z</time>
      </trkpt>
      <trkpt lat="44.90767" lon="5.67515">
        <ele>484</ele>
        <time>2015-06-29T14:32:34.000Z</time>
      </trkpt>
      <trkpt lat="44.90785" lon="5.67478">
        <ele>484</ele>
        <time>2015-06-29T14:32:39.000Z</time>
      </trkpt>
      <trkpt lat="44.90803" lon="5.67438">
        <ele>484</ele>
        <time>2015-06-29T14:32:44.000Z</time>
      </trkpt>
      <trkpt lat="44.9081" lon="5.67422">
        <ele>484</ele>
        <time>2015-06-29T14:32:46.000Z</time>
      </trkpt>
      <trkpt lat="44.90819" lon="5.67397">
        <ele>484</ele>
        <time>2015-06-29T14:32:49.000Z</time>
      </trkpt>
      <trkpt lat="44.9084" lon="5.67345">
        <ele>484</ele>
        <time>2015-06-29T14:32:55.000Z</time>
      </trkpt>
      <trkpt lat="44.90859" lon="5.67297">
        <ele>484</ele>
        <time>2015-06-29T14:33:01.000Z</time>
      </trkpt>
      <trkpt lat="44.90872" lon="5.67269">
        <ele>484</ele>
        <time>2015-06-29T14:33:05.000Z</time>
      </trkpt>
      <trkpt lat="44.90873" lon="5.67262">
        <ele>484</ele>
        <time>2015-06-29T14:33:06.000Z</time>
      </trkpt>
      <trkpt lat="44.90873" lon="5.67248">
        <ele>484</ele>
        <time>2015-06-29T14:33:08.000Z</time>
      </trkpt>
      <trkpt lat="44.90869" lon="5.67242">
        <ele>484</ele>
        <time>2015-06-29T14:33:11.000Z</time>
      </trkpt>
      <trkpt lat="44.90863" lon="5.67251">
        <ele>484</ele>
        <time>2015-06-29T14:33:14.000Z</time>
      </trkpt>
      <trkpt lat="44.90862" lon="5.67254">
        <ele>484</ele>
        <time>2015-06-29T14:33:15.000Z</time>
      </trkpt>
      <trkpt lat="44.90861" lon="5.67266">
        <ele>484</ele>
        <time>2015-06-29T14:33:19.000Z</time>
      </trkpt>
      <trkpt lat="44.9086" lon="5.67272">
        <ele>484</ele>
        <time>2015-06-29T14:33:22.000Z</time>
      </trkpt>
      <trkpt lat="44.9086" lon="5.67273">
        <ele>484</ele>
        <time>2015-06-29T14:33:23.000Z</time>
      </trkpt>
      <trkpt lat="44.90853" lon="5.6728">
        <ele>484</ele>
        <time>2015-06-29T14:33:29.000Z</time>
      </trkpt>
      <trkpt lat="44.90851" lon="5.67293">
        <ele>484</ele>
        <time>2015-06-29T14:33:31.000Z</time>
      </trkpt>
      <trkpt lat="44.90852" lon="5.67298">
        <ele>484</ele>
        <time>2015-06-29T14:33:32.000Z</time>
      </trkpt>
      <trkpt lat="44.90848" lon="5.67327">
        <ele>484</ele>
        <time>2015-06-29T14:33:37.000Z</time>
      </trkpt>
      <trkpt lat="44.90848" lon="5.67361">
        <ele>484</ele>
        <time>2015-06-29T14:33:41.000Z</time>
      </trkpt>
      <trkpt lat="44.90843" lon="5.67414">
        <ele>484</ele>
        <time>2015-06-29T14:33:47.000Z</time>
      </trkpt>
      <trkpt lat="44.9084" lon="5.67432">
        <ele>484</ele>
        <time>2015-06-29T14:33:49.000Z</time>
      </trkpt>
      <trkpt lat="44.9084" lon="5.67458">
        <ele>484</ele>
        <time>2015-06-29T14:33:52.000Z</time>
      </trkpt>
      <trkpt lat="44.90833" lon="5.6748">
        <ele>484</ele>
        <time>2015-06-29T14:33:55.000Z</time>
      </trkpt>
      <trkpt lat="44.90831" lon="5.67487">
        <ele>484</ele>
        <time>2015-06-29T14:33:56.000Z</time>
      </trkpt>
      <trkpt lat="44.90818" lon="5.67531">
        <ele>484</ele>
        <time>2015-06-29T14:34:02.000Z</time>
      </trkpt>
      <trkpt lat="44.90812" lon="5.67535">
        <ele>484</ele>
        <time>2015-06-29T14:34:05.000Z</time>
      </trkpt>
      <trkpt lat="44.9081" lon="5.67533">
        <ele>484</ele>
        <time>2015-06-29T14:34:09.000Z</time>
      </trkpt>
      <trkpt lat="44.90809" lon="5.6753">
        <ele>484</ele>
        <time>2015-06-29T14:34:11.000Z</time>
      </trkpt>
      <trkpt lat="44.90806" lon="5.67528">
        <ele>484</ele>
        <time>2015-06-29T14:34:17.000Z</time>
      </trkpt>
      <trkpt lat="44.90804" lon="5.67526">
        <ele>484</ele>
        <time>2015-06-29T14:34:23.000Z</time>
      </trkpt>
      <trkpt lat="44.90801" lon="5.67526">
        <ele>484</ele>
        <time>2015-06-29T14:34:28.000Z</time>
      </trkpt>
      <trkpt lat="44.90793" lon="5.67534">
        <ele>484</ele>
        <time>2015-06-29T14:34:34.000Z</time>
      </trkpt>
      <trkpt lat="44.90786" lon="5.67552">
        <ele>484</ele>
        <time>2015-06-29T14:34:38.000Z</time>
      </trkpt>
      <trkpt lat="44.90772" lon="5.67578">
        <ele>484</ele>
        <time>2015-06-29T14:34:43.000Z</time>
      </trkpt>
      <trkpt lat="44.90768" lon="5.67586">
        <ele>484</ele>
        <time>2015-06-29T14:34:45.000Z</time>
      </trkpt>
      <trkpt lat="44.90765" lon="5.67589">
        <ele>484</ele>
        <time>2015-06-29T14:34:46.000Z</time>
      </trkpt>
      <trkpt lat="44.90751" lon="5.67608">
        <ele>484</ele>
        <time>2015-06-29T14:34:50.000Z</time>
      </trkpt>
      <trkpt lat="44.90737" lon="5.67637">
        <ele>484</ele>
        <time>2015-06-29T14:34:54.000Z</time>
      </trkpt>
      <trkpt lat="44.90726" lon="5.67659">
        <ele>484</ele>
        <time>2015-06-29T14:34:57.000Z</time>
      </trkpt>
      <trkpt lat="44.90719" lon="5.67671">
        <ele>484</ele>
        <time>2015-06-29T14:34:59.000Z</time>
      </trkpt>
      <trkpt lat="44.90711" lon="5.67685">
        <ele>484</ele>
        <time>2015-06-29T14:35:03.000Z</time>
      </trkpt>
      <trkpt lat="44.90705" lon="5.67705">
        <ele>484</ele>
        <time>2015-06-29T14:35:08.000Z</time>
      </trkpt>
      <trkpt lat="44.90702" lon="5.67726">
        <ele>484</ele>
        <time>2015-06-29T14:35:12.000Z</time>
      </trkpt>
      <trkpt lat="44.90695" lon="5.67738">
        <ele>484</ele>
        <time>2015-06-29T14:35:15.000Z</time>
      </trkpt>
      <trkpt lat="44.90689" lon="5.67739">
        <ele>484</ele>
        <time>2015-06-29T14:35:17.000Z</time>
      </trkpt>
      <trkpt lat="44.90686" lon="5.67737">
        <ele>484</ele>
        <time>2015-06-29T14:35:18.000Z</time>
      </trkpt>
      <trkpt lat="44.90684" lon="5.67725">
        <ele>484</ele>
        <time>2015-06-29T14:35:21.000Z</time>
      </trkpt>
      <trkpt lat="44.90676" lon="5.67715">
        <ele>484</ele>
        <time>2015-06-29T14:35:24.000Z</time>
      </trkpt>
      <trkpt lat="44.90667" lon="5.67705">
        <ele>484</ele>
        <time>2015-06-29T14:35:27.000Z</time>
      </trkpt>
      <trkpt lat="44.90661" lon="5.67688">
        <ele>484</ele>
        <time>2015-06-29T14:35:30.000Z</time>
      </trkpt>
      <trkpt lat="44.90653" lon="5.6766">
        <ele>484</ele>
        <time>2015-06-29T14:35:34.000Z</time>
      </trkpt>
      <trkpt lat="44.90651" lon="5.67652">
        <ele>484</ele>
        <time>2015-06-29T14:35:35.000Z</time>
      </trkpt>
      <trkpt lat="44.9064" lon="5.67623">
        <ele>484</ele>
        <time>2015-06-29T14:35:39.000Z</time>
      </trkpt>
      <trkpt lat="44.90637" lon="5.67615">
        <ele>484</ele>
        <time>2015-06-29T14:35:40.000Z</time>
      </trkpt>
      <trkpt lat="44.90631" lon="5.676">
        <ele>484</ele>
        <time>2015-06-29T14:35:42.000Z</time>
      </trkpt>
      <trkpt lat="44.90618" lon="5.67578">
        <ele>484</ele>
        <time>2015-06-29T14:35:45.000Z</time>
      </trkpt>
      <trkpt lat="44.90605" lon="5.67555">
        <ele>484</ele>
        <time>2015-06-29T14:35:48.000Z</time>
      </trkpt>
      <trkpt lat="44.906" lon="5.67549">
        <ele>484</ele>
        <time>2015-06-29T14:35:49.000Z</time>
      </trkpt>
      <trkpt lat="44.90591" lon="5.67538">
        <ele>484</ele>
        <time>2015-06-29T14:35:51.000Z</time>
      </trkpt>
      <trkpt lat="44.90584" lon="5.67527">
        <ele>484</ele>
        <time>2015-06-29T14:35:53.000Z</time>
      </trkpt>
      <trkpt lat="44.90571" lon="5.67497">
        <ele>484</ele>
        <time>2015-06-29T14:35:57.000Z</time>
      </trkpt>
      <trkpt lat="44.90568" lon="5.67489">
        <ele>484</ele>
        <time>2015-06-29T14:35:58.000Z</time>
      </trkpt>
      <trkpt lat="44.90561" lon="5.67472">
        <ele>484</ele>
        <time>2015-06-29T14:36:00.000Z</time>
      </trkpt>
      <trkpt lat="44.90555" lon="5.67455">
        <ele>484</ele>
        <time>2015-06-29T14:36:02.000Z</time>
      </trkpt>
      <trkpt lat="44.90549" lon="5.67444">
        <ele>484</ele>
        <time>2015-06-29T14:36:04.000Z</time>
      </trkpt>
      <trkpt lat="44.90546" lon="5.67441">
        <ele>484</ele>
        <time>2015-06-29T14:36:05.000Z</time>
      </trkpt>
      <trkpt lat="44.90541" lon="5.67438">
        <ele>484</ele>
        <time>2015-06-29T14:36:08.000Z</time>
      </trkpt>
      <trkpt lat="44.90537" lon="5.67443">
        <ele>484</ele>
        <time>2015-06-29T14:36:11.000Z</time>
      </trkpt>
      <trkpt lat="44.90533" lon="5.67448">
        <ele>484</ele>
        <time>2015-06-29T14:36:16.000Z</time>
      </trkpt>
      <trkpt lat="44.9053" lon="5.67452">
        <ele>484</ele>
        <time>2015-06-29T14:36:22.000Z</time>
      </trkpt>
      <trkpt lat="44.9053" lon="5.67451">
        <ele>484</ele>
        <time>2015-06-29T14:36:26.000Z</time>
      </trkpt>
      <trkpt lat="44.90531" lon="5.67451">
        <ele>484</ele>
        <time>2015-06-29T14:36:30.000Z</time>
      </trkpt>
      <trkpt lat="44.90526" lon="5.67449">
        <ele>484</ele>
        <time>2015-06-29T14:36:36.000Z</time>
      </trkpt>
      <trkpt lat="44.90523" lon="5.67447">
        <ele>484</ele>
        <time>2015-06-29T14:36:41.000Z</time>
      </trkpt>
      <trkpt lat="44.90517" lon="5.67449">
        <ele>484</ele>
        <time>2015-06-29T14:36:47.000Z</time>
      </trkpt>
      <trkpt lat="44.90513" lon="5.67453">
        <ele>484</ele>
        <time>2015-06-29T14:36:48.000Z</time>
      </trkpt>
      <trkpt lat="44.90507" lon="5.6747">
        <ele>484</ele>
        <time>2015-06-29T14:36:51.000Z</time>
      </trkpt>
      <trkpt lat="44.90492" lon="5.67497">
        <ele>484</ele>
        <time>2015-06-29T14:36:55.000Z</time>
      </trkpt>
      <trkpt lat="44.90469" lon="5.67532">
        <ele>484</ele>
        <time>2015-06-29T14:37:00.000Z</time>
      </trkpt>
      <trkpt lat="44.90463" lon="5.67538">
        <ele>484</ele>
        <time>2015-06-29T14:37:01.000Z</time>
      </trkpt>
      <trkpt lat="44.90459" lon="5.67545">
        <ele>484</ele>
        <time>2015-06-29T14:37:02.000Z</time>
      </trkpt>
      <trkpt lat="44.90439" lon="5.67572">
        <ele>484</ele>
        <time>2015-06-29T14:37:06.000Z</time>
      </trkpt>
      <trkpt lat="44.90406" lon="5.67608">
        <ele>484</ele>
        <time>2015-06-29T14:37:12.000Z</time>
      </trkpt>
      <trkpt lat="44.90373" lon="5.67648">
        <ele>484</ele>
        <time>2015-06-29T14:37:18.000Z</time>
      </trkpt>
      <trkpt lat="44.90342" lon="5.67689">
        <ele>484</ele>
        <time>2015-06-29T14:37:24.000Z</time>
      </trkpt>
      <trkpt lat="44.90311" lon="5.67729">
        <ele>484</ele>
        <time>2015-06-29T14:37:30.000Z</time>
      </trkpt>
      <trkpt lat="44.90307" lon="5.67736">
        <ele>484</ele>
        <time>2015-06-29T14:37:31.000Z</time>
      </trkpt>
      <trkpt lat="44.90296" lon="5.67758">
        <ele>484</ele>
        <time>2015-06-29T14:37:34.000Z</time>
      </trkpt>
      <trkpt lat="44.90275" lon="5.67786">
        <ele>484</ele>
        <time>2015-06-29T14:37:38.000Z</time>
      </trkpt>
      <trkpt lat="44.90252" lon="5.67831">
        <ele>484</ele>
        <time>2015-06-29T14:37:44.000Z</time>
      </trkpt>
      <trkpt lat="44.90237" lon="5.67861">
        <ele>484</ele>
        <time>2015-06-29T14:37:48.000Z</time>
      </trkpt>
      <trkpt lat="44.90228" lon="5.67876">
        <ele>484</ele>
        <time>2015-06-29T14:37:50.000Z</time>
      </trkpt>
      <trkpt lat="44.90213" lon="5.67902">
        <ele>484</ele>
        <time>2015-06-29T14:37:54.000Z</time>
      </trkpt>
      <trkpt lat="44.90209" lon="5.67908">
        <ele>484</ele>
        <time>2015-06-29T14:37:55.000Z</time>
      </trkpt>
      <trkpt lat="44.90189" lon="5.67941">
        <ele>484</ele>
        <time>2015-06-29T14:38:01.000Z</time>
      </trkpt>
      <trkpt lat="44.90179" lon="5.67936">
        <ele>484</ele>
        <time>2015-06-29T14:38:04.000Z</time>
      </trkpt>
      <trkpt lat="44.90173" lon="5.67921">
        <ele>484</ele>
        <time>2015-06-29T14:38:07.000Z</time>
      </trkpt>
      <trkpt lat="44.90161" lon="5.67902">
        <ele>484</ele>
        <time>2015-06-29T14:38:11.000Z</time>
      </trkpt>
      <trkpt lat="44.90152" lon="5.6789">
        <ele>484</ele>
        <time>2015-06-29T14:38:13.000Z</time>
      </trkpt>
      <trkpt lat="44.90149" lon="5.67884">
        <ele>484</ele>
        <time>2015-06-29T14:38:14.000Z</time>
      </trkpt>
      <trkpt lat="44.90145" lon="5.67876">
        <ele>484</ele>
        <time>2015-06-29T14:38:15.000Z</time>
      </trkpt>
      <trkpt lat="44.90134" lon="5.67854">
        <ele>484</ele>
        <time>2015-06-29T14:38:18.000Z</time>
      </trkpt>
      <trkpt lat="44.90126" lon="5.67839">
        <ele>484</ele>
        <time>2015-06-29T14:38:20.000Z</time>
      </trkpt>
      <trkpt lat="44.90114" lon="5.67816">
        <ele>484</ele>
        <time>2015-06-29T14:38:23.000Z</time>
      </trkpt>
      <trkpt lat="44.90103" lon="5.67799">
        <ele>484</ele>
        <time>2015-06-29T14:38:25.000Z</time>
      </trkpt>
      <trkpt lat="44.90077" lon="5.67763">
        <ele>484</ele>
        <time>2015-06-29T14:38:30.000Z</time>
      </trkpt>
      <trkpt lat="44.90042" lon="5.67712">
        <ele>484</ele>
        <time>2015-06-29T14:38:37.000Z</time>
      </trkpt>
      <trkpt lat="44.90028" lon="5.6769">
        <ele>484</ele>
        <time>2015-06-29T14:38:40.000Z</time>
      </trkpt>
      <trkpt lat="44.90018" lon="5.67677">
        <ele>484</ele>
        <time>2015-06-29T14:38:42.000Z</time>
      </trkpt>
      <trkpt lat="44.89999" lon="5.6765">
        <ele>484</ele>
        <time>2015-06-29T14:38:46.000Z</time>
      </trkpt>
      <trkpt lat="44.89994" lon="5.67643">
        <ele>484</ele>
        <time>2015-06-29T14:38:47.000Z</time>
      </trkpt>
      <trkpt lat="44.89973" lon="5.67617">
        <ele>484</ele>
        <time>2015-06-29T14:38:51.000Z</time>
      </trkpt>
      <trkpt lat="44.89967" lon="5.67611">
        <ele>484</ele>
        <time>2015-06-29T14:38:52.000Z</time>
      </trkpt>
      <trkpt lat="44.89962" lon="5.67603">
        <ele>484</ele>
        <time>2015-06-29T14:38:53.000Z</time>
      </trkpt>
      <trkpt lat="44.89946" lon="5.67584">
        <ele>484</ele>
        <time>2015-06-29T14:38:56.000Z</time>
      </trkpt>
      <trkpt lat="44.89936" lon="5.67572">
        <ele>484</ele>
        <time>2015-06-29T14:38:58.000Z</time>
      </trkpt>
      <trkpt lat="44.89922" lon="5.67554">
        <ele>484</ele>
        <time>2015-06-29T14:39:01.000Z</time>
      </trkpt>
      <trkpt lat="44.89918" lon="5.67549">
        <ele>484</ele>
        <time>2015-06-29T14:39:02.000Z</time>
      </trkpt>
      <trkpt lat="44.89905" lon="5.67534">
        <ele>484</ele>
        <time>2015-06-29T14:39:05.000Z</time>
      </trkpt>
      <trkpt lat="44.89894" lon="5.67531">
        <ele>484</ele>
        <time>2015-06-29T14:39:08.000Z</time>
      </trkpt>
      <trkpt lat="44.89884" lon="5.67543">
        <ele>484</ele>
        <time>2015-06-29T14:39:11.000Z</time>
      </trkpt>
      <trkpt lat="44.89882" lon="5.67549">
        <ele>484</ele>
        <time>2015-06-29T14:39:12.000Z</time>
      </trkpt>
      <trkpt lat="44.8987" lon="5.67578">
        <ele>484</ele>
        <time>2015-06-29T14:39:16.000Z</time>
      </trkpt>
      <trkpt lat="44.89866" lon="5.67585">
        <ele>484</ele>
        <time>2015-06-29T14:39:17.000Z</time>
      </trkpt>
      <trkpt lat="44.89854" lon="5.67607">
        <ele>484</ele>
        <time>2015-06-29T14:39:20.000Z</time>
      </trkpt>
      <trkpt lat="44.89843" lon="5.67626">
        <ele>484</ele>
        <time>2015-06-29T14:39:23.000Z</time>
      </trkpt>
      <trkpt lat="44.89836" lon="5.6764">
        <ele>484</ele>
        <time>2015-06-29T14:39:25.000Z</time>
      </trkpt>
      <trkpt lat="44.89832" lon="5.67648">
        <ele>484</ele>
        <time>2015-06-29T14:39:26.000Z</time>
      </trkpt>
      <trkpt lat="44.89819" lon="5.67682">
        <ele>484</ele>
        <time>2015-06-29T14:39:30.000Z</time>
      </trkpt>
      <trkpt lat="44.89815" lon="5.6769">
        <ele>484</ele>
        <time>2015-06-29T14:39:31.000Z</time>
      </trkpt>
      <trkpt lat="44.89796" lon="5.67729">
        <ele>484</ele>
        <time>2015-06-29T14:39:36.000Z</time>
      </trkpt>
      <trkpt lat="44.89789" lon="5.67745">
        <ele>484</ele>
        <time>2015-06-29T14:39:38.000Z</time>
      </trkpt>
      <trkpt lat="44.89764" lon="5.67789">
        <ele>484</ele>
        <time>2015-06-29T14:39:44.000Z</time>
      </trkpt>
      <trkpt lat="44.89745" lon="5.67822">
        <ele>484</ele>
        <time>2015-06-29T14:39:49.000Z</time>
      </trkpt>
      <trkpt lat="44.89723" lon="5.67866">
        <ele>484</ele>
        <time>2015-06-29T14:39:55.000Z</time>
      </trkpt>
      <trkpt lat="44.89702" lon="5.679">
        <ele>484</ele>
        <time>2015-06-29T14:40:00.000Z</time>
      </trkpt>
      <trkpt lat="44.89677" lon="5.67938">
        <ele>484</ele>
        <time>2015-06-29T14:40:06.000Z</time>
      </trkpt>
      <trkpt lat="44.89658" lon="5.67972">
        <ele>484</ele>
        <time>2015-06-29T14:40:11.000Z</time>
      </trkpt>
      <trkpt lat="44.89638" lon="5.68013">
        <ele>484</ele>
        <time>2015-06-29T14:40:17.000Z</time>
      </trkpt>
      <trkpt lat="44.89634" lon="5.68025">
        <ele>484</ele>
        <time>2015-06-29T14:40:19.000Z</time>
      </trkpt>
      <trkpt lat="44.89628" lon="5.68043">
        <ele>484</ele>
        <time>2015-06-29T14:40:22.000Z</time>
      </trkpt>
      <trkpt lat="44.89625" lon="5.68048">
        <ele>484</ele>
        <time>2015-06-29T14:40:23.000Z</time>
      </trkpt>
      <trkpt lat="44.89621" lon="5.68053">
        <ele>484</ele>
        <time>2015-06-29T14:40:25.000Z</time>
      </trkpt>
      <trkpt lat="44.89619" lon="5.68053">
        <ele>484</ele>
        <time>2015-06-29T14:40:26.000Z</time>
      </trkpt>
      <trkpt lat="44.89613" lon="5.68046">
        <ele>484</ele>
        <time>2015-06-29T14:40:29.000Z</time>
      </trkpt>
      <trkpt lat="44.89611" lon="5.68043">
        <ele>484</ele>
        <time>2015-06-29T14:40:30.000Z</time>
      </trkpt>
      <trkpt lat="44.89607" lon="5.6804">
        <ele>484</ele>
        <time>2015-06-29T14:40:32.000Z</time>
      </trkpt>
      <trkpt lat="44.89604" lon="5.68039">
        <ele>484</ele>
        <time>2015-06-29T14:40:33.000Z</time>
      </trkpt>
      <trkpt lat="44.89591" lon="5.68028">
        <ele>484</ele>
        <time>2015-06-29T14:40:37.000Z</time>
      </trkpt>
      <trkpt lat="44.8958" lon="5.67999">
        <ele>484</ele>
        <time>2015-06-29T14:40:42.000Z</time>
      </trkpt>
      <trkpt lat="44.89572" lon="5.67978">
        <ele>484</ele>
        <time>2015-06-29T14:40:45.000Z</time>
      </trkpt>
      <trkpt lat="44.89568" lon="5.67971">
        <ele>484</ele>
        <time>2015-06-29T14:40:46.000Z</time>
      </trkpt>
      <trkpt lat="44.89551" lon="5.67946">
        <ele>484</ele>
        <time>2015-06-29T14:40:50.000Z</time>
      </trkpt>
      <trkpt lat="44.89547" lon="5.67938">
        <ele>484</ele>
        <time>2015-06-29T14:40:51.000Z</time>
      </trkpt>
      <trkpt lat="44.89536" lon="5.67915">
        <ele>484</ele>
        <time>2015-06-29T14:40:54.000Z</time>
      </trkpt>
      <trkpt lat="44.89531" lon="5.67898">
        <ele>484</ele>
        <time>2015-06-29T14:40:56.000Z</time>
      </trkpt>
      <trkpt lat="44.89527" lon="5.6788">
        <ele>484</ele>
        <time>2015-06-29T14:40:58.000Z</time>
      </trkpt>
      <trkpt lat="44.89516" lon="5.67843">
        <ele>484</ele>
        <time>2015-06-29T14:41:02.000Z</time>
      </trkpt>
      <trkpt lat="44.89509" lon="5.67825">
        <ele>484</ele>
        <time>2015-06-29T14:41:04.000Z</time>
      </trkpt>
      <trkpt lat="44.89501" lon="5.67809">
        <ele>484</ele>
        <time>2015-06-29T14:41:06.000Z</time>
      </trkpt>
      <trkpt lat="44.89492" lon="5.67795">
        <ele>484</ele>
        <time>2015-06-29T14:41:08.000Z</time>
      </trkpt>
      <trkpt lat="44.89474" lon="5.6777">
        <ele>484</ele>
        <time>2015-06-29T14:41:12.000Z</time>
      </trkpt>
      <trkpt lat="44.89455" lon="5.67747">
        <ele>484</ele>
        <time>2015-06-29T14:41:16.000Z</time>
      </trkpt>
      <trkpt lat="44.89434" lon="5.67725">
        <ele>484</ele>
        <time>2015-06-29T14:41:20.000Z</time>
      </trkpt>
      <trkpt lat="44.89418" lon="5.67702">
        <ele>484</ele>
        <time>2015-06-29T14:41:24.000Z</time>
      </trkpt>
      <trkpt lat="44.894" lon="5.67675">
        <ele>484</ele>
        <time>2015-06-29T14:41:28.000Z</time>
      </trkpt>
      <trkpt lat="44.89383" lon="5.67657">
        <ele>484</ele>
        <time>2015-06-29T14:41:31.000Z</time>
      </trkpt>
      <trkpt lat="44.8938" lon="5.6765">
        <ele>484</ele>
        <time>2015-06-29T14:41:32.000Z</time>
      </trkpt>
      <trkpt lat="44.89363" lon="5.67628">
        <ele>484</ele>
        <time>2015-06-29T14:41:36.000Z</time>
      </trkpt>
      <trkpt lat="44.89359" lon="5.67621">
        <ele>484</ele>
        <time>2015-06-29T14:41:38.000Z</time>
      </trkpt>
      <trkpt lat="44.89355" lon="5.67621">
        <ele>484</ele>
        <time>2015-06-29T14:41:40.000Z</time>
      </trkpt>
      <trkpt lat="44.89349" lon="5.6763">
        <ele>484</ele>
        <time>2015-06-29T14:41:43.000Z</time>
      </trkpt>
      <trkpt lat="44.89339" lon="5.67642">
        <ele>484</ele>
        <time>2015-06-29T14:41:48.000Z</time>
      </trkpt>
      <trkpt lat="44.89334" lon="5.67651">
        <ele>484</ele>
        <time>2015-06-29T14:41:51.000Z</time>
      </trkpt>
      <trkpt lat="44.89327" lon="5.67663">
        <ele>484</ele>
        <time>2015-06-29T14:41:55.000Z</time>
      </trkpt>
      <trkpt lat="44.89323" lon="5.67669">
        <ele>484</ele>
        <time>2015-06-29T14:41:57.000Z</time>
      </trkpt>
      <trkpt lat="44.89318" lon="5.67672">
        <ele>484</ele>
        <time>2015-06-29T14:41:58.000Z</time>
      </trkpt>
      <trkpt lat="44.89301" lon="5.67689">
        <ele>484</ele>
        <time>2015-06-29T14:42:02.000Z</time>
      </trkpt>
      <trkpt lat="44.89279" lon="5.67731">
        <ele>484</ele>
        <time>2015-06-29T14:42:08.000Z</time>
      </trkpt>
      <trkpt lat="44.89257" lon="5.67773">
        <ele>484</ele>
        <time>2015-06-29T14:42:14.000Z</time>
      </trkpt>
      <trkpt lat="44.8923" lon="5.67823">
        <ele>484</ele>
        <time>2015-06-29T14:42:21.000Z</time>
      </trkpt>
      <trkpt lat="44.89201" lon="5.67868">
        <ele>484</ele>
        <time>2015-06-29T14:42:28.000Z</time>
      </trkpt>
      <trkpt lat="44.89172" lon="5.67914">
        <ele>484</ele>
        <time>2015-06-29T14:42:35.000Z</time>
      </trkpt>
      <trkpt lat="44.89154" lon="5.67941">
        <ele>484</ele>
        <time>2015-06-29T14:42:40.000Z</time>
      </trkpt>
      <trkpt lat="44.89146" lon="5.67944">
        <ele>484</ele>
        <time>2015-06-29T14:42:43.000Z</time>
      </trkpt>
      <trkpt lat="44.89137" lon="5.67934">
        <ele>484</ele>
        <time>2015-06-29T14:42:46.000Z</time>
      </trkpt>
      <trkpt lat="44.89134" lon="5.6793">
        <ele>484</ele>
        <time>2015-06-29T14:42:47.000Z</time>
      </trkpt>
      <trkpt lat="44.89127" lon="5.67912">
        <ele>484</ele>
        <time>2015-06-29T14:42:50.000Z</time>
      </trkpt>
      <trkpt lat="44.89114" lon="5.67887">
        <ele>484</ele>
        <time>2015-06-29T14:42:54.000Z</time>
      </trkpt>
      <trkpt lat="44.89107" lon="5.67872">
        <ele>484</ele>
        <time>2015-06-29T14:42:56.000Z</time>
      </trkpt>
      <trkpt lat="44.89097" lon="5.67852">
        <ele>484</ele>
        <time>2015-06-29T14:42:59.000Z</time>
      </trkpt>
      <trkpt lat="44.89084" lon="5.67833">
        <ele>484</ele>
        <time>2015-06-29T14:43:02.000Z</time>
      </trkpt>
      <trkpt lat="44.89075" lon="5.67821">
        <ele>484</ele>
        <time>2015-06-29T14:43:04.000Z</time>
      </trkpt>
      <trkpt lat="44.89072" lon="5.67813">
        <ele>484</ele>
        <time>2015-06-29T14:43:05.000Z</time>
      </trkpt>
      <trkpt lat="44.8906" lon="5.6779">
        <ele>484</ele>
        <time>2015-06-29T14:43:08.000Z</time>
      </trkpt>
      <trkpt lat="44.89034" lon="5.67745">
        <ele>484</ele>
        <time>2015-06-29T14:43:14.000Z</time>
      </trkpt>
      <trkpt lat="44.8901" lon="5.67711">
        <ele>484</ele>
        <time>2015-06-29T14:43:19.000Z</time>
      </trkpt>
      <trkpt lat="44.88983" lon="5.67671">
        <ele>484</ele>
        <time>2015-06-29T14:43:25.000Z</time>
      </trkpt>
      <trkpt lat="44.88968" lon="5.67652">
        <ele>484</ele>
        <time>2015-06-29T14:43:28.000Z</time>
      </trkpt>
      <trkpt lat="44.88959" lon="5.67642">
        <ele>484</ele>
        <time>2015-06-29T14:43:30.000Z</time>
      </trkpt>
      <trkpt lat="44.88955" lon="5.67638">
        <ele>484</ele>
        <time>2015-06-29T14:43:31.000Z</time>
      </trkpt>
      <trkpt lat="44.88948" lon="5.67638">
        <ele>484</ele>
        <time>2015-06-29T14:43:33.000Z</time>
      </trkpt>
      <trkpt lat="44.88941" lon="5.67651">
        <ele>484</ele>
        <time>2015-06-29T14:43:36.000Z</time>
      </trkpt>
      <trkpt lat="44.8894" lon="5.67655">
        <ele>484</ele>
        <time>2015-06-29T14:43:37.000Z</time>
      </trkpt>
      <trkpt lat="44.88936" lon="5.67661">
        <ele>484</ele>
        <time>2015-06-29T14:43:39.000Z</time>
      </trkpt>
      <trkpt lat="44.88932" lon="5.67665">
        <ele>484</ele>
        <time>2015-06-29T14:43:40.000Z</time>
      </trkpt>
      <trkpt lat="44.88925" lon="5.67681">
        <ele>484</ele>
        <time>2015-06-29T14:43:43.000Z</time>
      </trkpt>
      <trkpt lat="44.88917" lon="5.67706">
        <ele>484</ele>
        <time>2015-06-29T14:43:47.000Z</time>
      </trkpt>
      <trkpt lat="44.889" lon="5.67743">
        <ele>484</ele>
        <time>2015-06-29T14:43:52.000Z</time>
      </trkpt>
      <trkpt lat="44.88875" lon="5.67785">
        <ele>484</ele>
        <time>2015-06-29T14:43:58.000Z</time>
      </trkpt>
      <trkpt lat="44.88845" lon="5.67835">
        <ele>484</ele>
        <time>2015-06-29T14:44:05.000Z</time>
      </trkpt>
      <trkpt lat="44.8884" lon="5.67842">
        <ele>484</ele>
        <time>2015-06-29T14:44:06.000Z</time>
      </trkpt>
      <trkpt lat="44.88812" lon="5.67891">
        <ele>484</ele>
        <time>2015-06-29T14:44:13.000Z</time>
      </trkpt>
      <trkpt lat="44.88808" lon="5.67898">
        <ele>484</ele>
        <time>2015-06-29T14:44:14.000Z</time>
      </trkpt>
      <trkpt lat="44.88798" lon="5.6791">
        <ele>484</ele>
        <time>2015-06-29T14:44:16.000Z</time>
      </trkpt>
      <trkpt lat="44.88789" lon="5.67923">
        <ele>484</ele>
        <time>2015-06-29T14:44:18.000Z</time>
      </trkpt>
      <trkpt lat="44.88777" lon="5.67949">
        <ele>484</ele>
        <time>2015-06-29T14:44:21.000Z</time>
      </trkpt>
      <trkpt lat="44.88761" lon="5.67985">
        <ele>484</ele>
        <time>2015-06-29T14:44:26.000Z</time>
      </trkpt>
      <trkpt lat="44.88754" lon="5.67997">
        <ele>484</ele>
        <time>2015-06-29T14:44:29.000Z</time>
      </trkpt>
      <trkpt lat="44.88752" lon="5.67999">
        <ele>484</ele>
        <time>2015-06-29T14:44:30.000Z</time>
      </trkpt>
      <trkpt lat="44.88743" lon="5.67996">
        <ele>484</ele>
        <time>2015-06-29T14:44:33.000Z</time>
      </trkpt>
      <trkpt lat="44.88739" lon="5.67994">
        <ele>484</ele>
        <time>2015-06-29T14:44:34.000Z</time>
      </trkpt>
      <trkpt lat="44.88724" lon="5.67984">
        <ele>484</ele>
        <time>2015-06-29T14:44:38.000Z</time>
      </trkpt>
      <trkpt lat="44.88712" lon="5.67966">
        <ele>484</ele>
        <time>2015-06-29T14:44:41.000Z</time>
      </trkpt>
      <trkpt lat="44.88706" lon="5.6796">
        <ele>484</ele>
        <time>2015-06-29T14:44:42.000Z</time>
      </trkpt>
      <trkpt lat="44.88684" lon="5.67937">
        <ele>484</ele>
        <time>2015-06-29T14:44:46.000Z</time>
      </trkpt>
      <trkpt lat="44.8868" lon="5.67933">
        <ele>484</ele>
        <time>2015-06-29T14:44:47.000Z</time>
      </trkpt>
      <trkpt lat="44.88659" lon="5.6791">
        <ele>484</ele>
        <time>2015-06-29T14:44:51.000Z</time>
      </trkpt>
      <trkpt lat="44.88654" lon="5.67903">
        <ele>484</ele>
        <time>2015-06-29T14:44:52.000Z</time>
      </trkpt>
      <trkpt lat="44.88643" lon="5.67891">
        <ele>484</ele>
        <time>2015-06-29T14:44:54.000Z</time>
      </trkpt>
      <trkpt lat="44.88632" lon="5.67877">
        <ele>484</ele>
        <time>2015-06-29T14:44:56.000Z</time>
      </trkpt>
      <trkpt lat="44.88602" lon="5.67839">
        <ele>484</ele>
        <time>2015-06-29T14:45:02.000Z</time>
      </trkpt>
      <trkpt lat="44.8858" lon="5.67817">
        <ele>484</ele>
        <time>2015-06-29T14:45:06.000Z</time>
      </trkpt>
      <trkpt lat="44.88575" lon="5.67811">
        <ele>484</ele>
        <time>2015-06-29T14:45:07.000Z</time>
      </trkpt>
      <trkpt lat="44.8855" lon="5.6778">
        <ele>484</ele>
        <time>2015-06-29T14:45:12.000Z</time>
      </trkpt>
      <trkpt lat="44.88546" lon="5.67774">
        <ele>484</ele>
        <time>2015-06-29T14:45:13.000Z</time>
      </trkpt>
      <trkpt lat="44.88534" lon="5.67765">
        <ele>484</ele>
        <time>2015-06-29T14:45:15.000Z</time>
      </trkpt>
      <trkpt lat="44.88527" lon="5.67756">
        <ele>484</ele>
        <time>2015-06-29T14:45:17.000Z</time>
      </trkpt>
      <trkpt lat="44.88519" lon="5.67747">
        <ele>484</ele>
        <time>2015-06-29T14:45:19.000Z</time>
      </trkpt>
      <trkpt lat="44.88514" lon="5.67742">
        <ele>484</ele>
        <time>2015-06-29T14:45:21.000Z</time>
      </trkpt>
      <trkpt lat="44.88512" lon="5.67744">
        <ele>484</ele>
        <time>2015-06-29T14:45:22.000Z</time>
      </trkpt>
      <trkpt lat="44.88508" lon="5.67758">
        <ele>484</ele>
        <time>2015-06-29T14:45:25.000Z</time>
      </trkpt>
      <trkpt lat="44.88508" lon="5.67763">
        <ele>484</ele>
        <time>2015-06-29T14:45:26.000Z</time>
      </trkpt>
      <trkpt lat="44.88504" lon="5.67784">
        <ele>484</ele>
        <time>2015-06-29T14:45:30.000Z</time>
      </trkpt>
      <trkpt lat="44.88501" lon="5.67808">
        <ele>484</ele>
        <time>2015-06-29T14:45:33.000Z</time>
      </trkpt>
      <trkpt lat="44.88499" lon="5.67816">
        <ele>484</ele>
        <time>2015-06-29T14:45:34.000Z</time>
      </trkpt>
      <trkpt lat="44.88491" lon="5.67855">
        <ele>484</ele>
        <time>2015-06-29T14:45:38.000Z</time>
      </trkpt>
      <trkpt lat="44.88487" lon="5.67864">
        <ele>484</ele>
        <time>2015-06-29T14:45:39.000Z</time>
      </trkpt>
      <trkpt lat="44.88473" lon="5.67895">
        <ele>484</ele>
        <time>2015-06-29T14:45:43.000Z</time>
      </trkpt>
      <trkpt lat="44.88456" lon="5.67942">
        <ele>484</ele>
        <time>2015-06-29T14:45:48.000Z</time>
      </trkpt>
      <trkpt lat="44.88452" lon="5.6795">
        <ele>484</ele>
        <time>2015-06-29T14:45:49.000Z</time>
      </trkpt>
      <trkpt lat="44.88423" lon="5.68009">
        <ele>484</ele>
        <time>2015-06-29T14:45:56.000Z</time>
      </trkpt>
      <trkpt lat="44.88419" lon="5.68017">
        <ele>484</ele>
        <time>2015-06-29T14:45:57.000Z</time>
      </trkpt>
      <trkpt lat="44.88399" lon="5.68071">
        <ele>484</ele>
        <time>2015-06-29T14:46:03.000Z</time>
      </trkpt>
      <trkpt lat="44.88376" lon="5.68133">
        <ele>484</ele>
        <time>2015-06-29T14:46:10.000Z</time>
      </trkpt>
      <trkpt lat="44.8837" lon="5.68151">
        <ele>484</ele>
        <time>2015-06-29T14:46:12.000Z</time>
      </trkpt>
      <trkpt lat="44.8836" lon="5.68178">
        <ele>484</ele>
        <time>2015-06-29T14:46:15.000Z</time>
      </trkpt>
      <trkpt lat="44.88341" lon="5.68221">
        <ele>484</ele>
        <time>2015-06-29T14:46:20.000Z</time>
      </trkpt>
      <trkpt lat="44.88317" lon="5.6827">
        <ele>484</ele>
        <time>2015-06-29T14:46:26.000Z</time>
      </trkpt>
      <trkpt lat="44.88299" lon="5.68314">
        <ele>484</ele>
        <time>2015-06-29T14:46:31.000Z</time>
      </trkpt>
      <trkpt lat="44.88283" lon="5.68354">
        <ele>484</ele>
        <time>2015-06-29T14:46:36.000Z</time>
      </trkpt>
      <trkpt lat="44.8828" lon="5.68362">
        <ele>484</ele>
        <time>2015-06-29T14:46:37.000Z</time>
      </trkpt>
      <trkpt lat="44.88272" lon="5.68388">
        <ele>484</ele>
        <time>2015-06-29T14:46:40.000Z</time>
      </trkpt>
      <trkpt lat="44.8827" lon="5.68396">
        <ele>484</ele>
        <time>2015-06-29T14:46:41.000Z</time>
      </trkpt>
      <trkpt lat="44.88259" lon="5.68431">
        <ele>484</ele>
        <time>2015-06-29T14:46:46.000Z</time>
      </trkpt>
      <trkpt lat="44.88256" lon="5.68443">
        <ele>484</ele>
        <time>2015-06-29T14:46:48.000Z</time>
      </trkpt>
      <trkpt lat="44.88254" lon="5.68453">
        <ele>484</ele>
        <time>2015-06-29T14:46:50.000Z</time>
      </trkpt>
      <trkpt lat="44.88246" lon="5.68455">
        <ele>484</ele>
        <time>2015-06-29T14:46:53.000Z</time>
      </trkpt>
      <trkpt lat="44.88238" lon="5.68441">
        <ele>484</ele>
        <time>2015-06-29T14:46:56.000Z</time>
      </trkpt>
      <trkpt lat="44.88226" lon="5.68433">
        <ele>484</ele>
        <time>2015-06-29T14:46:59.000Z</time>
      </trkpt>
      <trkpt lat="44.88196" lon="5.68423">
        <ele>484</ele>
        <time>2015-06-29T14:47:04.000Z</time>
      </trkpt>
      <trkpt lat="44.88191" lon="5.6842">
        <ele>484</ele>
        <time>2015-06-29T14:47:05.000Z</time>
      </trkpt>
      <trkpt lat="44.88176" lon="5.68407">
        <ele>484</ele>
        <time>2015-06-29T14:47:08.000Z</time>
      </trkpt>
      <trkpt lat="44.88171" lon="5.68403">
        <ele>484</ele>
        <time>2015-06-29T14:47:09.000Z</time>
      </trkpt>
      <trkpt lat="44.8816" lon="5.68394">
        <ele>484</ele>
        <time>2015-06-29T14:47:11.000Z</time>
      </trkpt>
      <trkpt lat="44.88155" lon="5.6839">
        <ele>484</ele>
        <time>2015-06-29T14:47:12.000Z</time>
      </trkpt>
      <trkpt lat="44.88139" lon="5.68375">
        <ele>484</ele>
        <time>2015-06-29T14:47:15.000Z</time>
      </trkpt>
      <trkpt lat="44.88129" lon="5.68364">
        <ele>484</ele>
        <time>2015-06-29T14:47:17.000Z</time>
      </trkpt>
      <trkpt lat="44.88118" lon="5.68355">
        <ele>484</ele>
        <time>2015-06-29T14:47:19.000Z</time>
      </trkpt>
      <trkpt lat="44.88107" lon="5.68346">
        <ele>484</ele>
        <time>2015-06-29T14:47:21.000Z</time>
      </trkpt>
      <trkpt lat="44.88102" lon="5.68342">
        <ele>484</ele>
        <time>2015-06-29T14:47:22.000Z</time>
      </trkpt>
      <trkpt lat="44.88075" lon="5.68317">
        <ele>484</ele>
        <time>2015-06-29T14:47:27.000Z</time>
      </trkpt>
      <trkpt lat="44.88057" lon="5.683">
        <ele>484</ele>
        <time>2015-06-29T14:47:31.000Z</time>
      </trkpt>
      <trkpt lat="44.8805" lon="5.683">
        <ele>484</ele>
        <time>2015-06-29T14:47:34.000Z</time>
      </trkpt>
      <trkpt lat="44.88047" lon="5.68314">
        <ele>484</ele>
        <time>2015-06-29T14:47:37.000Z</time>
      </trkpt>
      <trkpt lat="44.88047" lon="5.6832">
        <ele>484</ele>
        <time>2015-06-29T14:47:38.000Z</time>
      </trkpt>
      <trkpt lat="44.88047" lon="5.68325">
        <ele>484</ele>
        <time>2015-06-29T14:47:39.000Z</time>
      </trkpt>
      <trkpt lat="44.88047" lon="5.68334">
        <ele>484</ele>
        <time>2015-06-29T14:47:41.000Z</time>
      </trkpt>
      <trkpt lat="44.88042" lon="5.68358">
        <ele>484</ele>
        <time>2015-06-29T14:47:45.000Z</time>
      </trkpt>
      <trkpt lat="44.8804" lon="5.68374">
        <ele>484</ele>
        <time>2015-06-29T14:47:47.000Z</time>
      </trkpt>
      <trkpt lat="44.88036" lon="5.68391">
        <ele>484</ele>
        <time>2015-06-29T14:47:49.000Z</time>
      </trkpt>
      <trkpt lat="44.88022" lon="5.68433">
        <ele>484</ele>
        <time>2015-06-29T14:47:54.000Z</time>
      </trkpt>
      <trkpt lat="44.88007" lon="5.68476">
        <ele>484</ele>
        <time>2015-06-29T14:47:59.000Z</time>
      </trkpt>
      <trkpt lat="44.87988" lon="5.68529">
        <ele>484</ele>
        <time>2015-06-29T14:48:05.000Z</time>
      </trkpt>
      <trkpt lat="44.87973" lon="5.68582">
        <ele>484</ele>
        <time>2015-06-29T14:48:11.000Z</time>
      </trkpt>
      <trkpt lat="44.87956" lon="5.68636">
        <ele>484</ele>
        <time>2015-06-29T14:48:17.000Z</time>
      </trkpt>
      <trkpt lat="44.87941" lon="5.68692">
        <ele>484</ele>
        <time>2015-06-29T14:48:23.000Z</time>
      </trkpt>
      <trkpt lat="44.87937" lon="5.6871">
        <ele>484</ele>
        <time>2015-06-29T14:48:25.000Z</time>
      </trkpt>
      <trkpt lat="44.87931" lon="5.68738">
        <ele>484</ele>
        <time>2015-06-29T14:48:28.000Z</time>
      </trkpt>
      <trkpt lat="44.87926" lon="5.68796">
        <ele>484</ele>
        <time>2015-06-29T14:48:34.000Z</time>
      </trkpt>
      <trkpt lat="44.8792" lon="5.68838">
        <ele>484</ele>
        <time>2015-06-29T14:48:39.000Z</time>
      </trkpt>
      <trkpt lat="44.87919" lon="5.68844">
        <ele>484</ele>
        <time>2015-06-29T14:48:40.000Z</time>
      </trkpt>
      <trkpt lat="44.87919" lon="5.6885">
        <ele>484</ele>
        <time>2015-06-29T14:48:42.000Z</time>
      </trkpt>
      <trkpt lat="44.87918" lon="5.68852">
        <ele>484</ele>
        <time>2015-06-29T14:48:43.000Z</time>
      </trkpt>
      <trkpt lat="44.87913" lon="5.68856">
        <ele>484</ele>
        <time>2015-06-29T14:48:45.000Z</time>
      </trkpt>
      <trkpt lat="44.87905" lon="5.68863">
        <ele>484</ele>
        <time>2015-06-29T14:48:48.000Z</time>
      </trkpt>
      <trkpt lat="44.87889" lon="5.68867">
        <ele>484</ele>
        <time>2015-06-29T14:48:52.000Z</time>
      </trkpt>
      <trkpt lat="44.87874" lon="5.68856">
        <ele>484</ele>
        <time>2015-06-29T14:48:55.000Z</time>
      </trkpt>
      <trkpt lat="44.87865" lon="5.68847">
        <ele>484</ele>
        <time>2015-06-29T14:48:57.000Z</time>
      </trkpt>
      <trkpt lat="44.87854" lon="5.68842">
        <ele>484</ele>
        <time>2015-06-29T14:48:59.000Z</time>
      </trkpt>
      <trkpt lat="44.87839" lon="5.68828">
        <ele>484</ele>
        <time>2015-06-29T14:49:02.000Z</time>
      </trkpt>
      <trkpt lat="44.87835" lon="5.68825">
        <ele>484</ele>
        <time>2015-06-29T14:49:03.000Z</time>
      </trkpt>
      <trkpt lat="44.87819" lon="5.68813">
        <ele>484</ele>
        <time>2015-06-29T14:49:06.000Z</time>
      </trkpt>
      <trkpt lat="44.87795" lon="5.68796">
        <ele>484</ele>
        <time>2015-06-29T14:49:11.000Z</time>
      </trkpt>
      <trkpt lat="44.87779" lon="5.68784">
        <ele>484</ele>
        <time>2015-06-29T14:49:14.000Z</time>
      </trkpt>
      <trkpt lat="44.87773" lon="5.68782">
        <ele>484</ele>
        <time>2015-06-29T14:49:15.000Z</time>
      </trkpt>
      <trkpt lat="44.87749" lon="5.68773">
        <ele>484</ele>
        <time>2015-06-29T14:49:19.000Z</time>
      </trkpt>
      <trkpt lat="44.87742" lon="5.68769">
        <ele>484</ele>
        <time>2015-06-29T14:49:20.000Z</time>
      </trkpt>
      <trkpt lat="44.87707" lon="5.68747">
        <ele>484</ele>
        <time>2015-06-29T14:49:26.000Z</time>
      </trkpt>
      <trkpt lat="44.87683" lon="5.68737">
        <ele>484</ele>
        <time>2015-06-29T14:49:30.000Z</time>
      </trkpt>
      <trkpt lat="44.87675" lon="5.68735">
        <ele>484</ele>
        <time>2015-06-29T14:49:32.000Z</time>
      </trkpt>
      <trkpt lat="44.87668" lon="5.68741">
        <ele>484</ele>
        <time>2015-06-29T14:49:35.000Z</time>
      </trkpt>
      <trkpt lat="44.87669" lon="5.68753">
        <ele>484</ele>
        <time>2015-06-29T14:49:38.000Z</time>
      </trkpt>
      <trkpt lat="44.87661" lon="5.6876">
        <ele>484</ele>
        <time>2015-06-29T14:49:42.000Z</time>
      </trkpt>
      <trkpt lat="44.87661" lon="5.6876">
        <ele>484</ele>
        <time>2015-06-29T14:49:44.000Z</time>
      </trkpt>
      <trkpt lat="44.87661" lon="5.68762">
        <ele>484</ele>
        <time>2015-06-29T14:49:49.000Z</time>
      </trkpt>
      <trkpt lat="44.87663" lon="5.68766">
        <ele>484</ele>
        <time>2015-06-29T14:49:55.000Z</time>
      </trkpt>
      <trkpt lat="44.87663" lon="5.68771">
        <ele>484</ele>
        <time>2015-06-29T14:50:03.000Z</time>
      </trkpt>
      <trkpt lat="44.87661" lon="5.68773">
        <ele>484</ele>
        <time>2015-06-29T14:50:08.000Z</time>
      </trkpt>
      <trkpt lat="44.87661" lon="5.68776">
        <ele>484</ele>
        <time>2015-06-29T14:50:12.000Z</time>
      </trkpt>
      <trkpt lat="44.8766" lon="5.68776">
        <ele>484</ele>
        <time>2015-06-29T14:50:13.000Z</time>
      </trkpt>
      <trkpt lat="44.8766" lon="5.68781">
        <ele>484</ele>
        <time>2015-06-29T14:50:15.000Z</time>
      </trkpt>
      <trkpt lat="44.87661" lon="5.68785">
        <ele>484</ele>
        <time>2015-06-29T14:50:16.000Z</time>
      </trkpt>
      <trkpt lat="44.87662" lon="5.68788">
        <ele>484</ele>
        <time>2015-06-29T14:50:19.000Z</time>
      </trkpt>
      <trkpt lat="44.87661" lon="5.688">
        <ele>484</ele>
        <time>2015-06-29T14:50:23.000Z</time>
      </trkpt>
      <trkpt lat="44.87663" lon="5.68812">
        <ele>484</ele>
        <time>2015-06-29T14:50:26.000Z</time>
      </trkpt>
      <trkpt lat="44.87662" lon="5.68817">
        <ele>484</ele>
        <time>2015-06-29T14:50:27.000Z</time>
      </trkpt>
      <trkpt lat="44.87665" lon="5.68844">
        <ele>484</ele>
        <time>2015-06-29T14:50:31.000Z</time>
      </trkpt>
      <trkpt lat="44.87677" lon="5.68875">
        <ele>484</ele>
        <time>2015-06-29T14:50:35.000Z</time>
      </trkpt>
      <trkpt lat="44.87679" lon="5.68885">
        <ele>484</ele>
        <time>2015-06-29T14:50:36.000Z</time>
      </trkpt>
      <trkpt lat="44.87684" lon="5.6891">
        <ele>484</ele>
        <time>2015-06-29T14:50:39.000Z</time>
      </trkpt>
      <trkpt lat="44.87687" lon="5.68936">
        <ele>484</ele>
        <time>2015-06-29T14:50:42.000Z</time>
      </trkpt>
      <trkpt lat="44.87691" lon="5.68953">
        <ele>484</ele>
        <time>2015-06-29T14:50:44.000Z</time>
      </trkpt>
      <trkpt lat="44.87699" lon="5.68985">
        <ele>484</ele>
        <time>2015-06-29T14:50:48.000Z</time>
      </trkpt>
      <trkpt lat="44.87702" lon="5.68992">
        <ele>484</ele>
        <time>2015-06-29T14:50:49.000Z</time>
      </trkpt>
      <trkpt lat="44.87703" lon="5.68997">
        <ele>484</ele>
        <time>2015-06-29T14:50:50.000Z</time>
      </trkpt>
      <trkpt lat="44.87702" lon="5.68997">
        <ele>484</ele>
        <time>2015-06-29T14:50:51.000Z</time>
      </trkpt>
      <trkpt lat="44.87702" lon="5.69003">
        <ele>484</ele>
        <time>2015-06-29T14:50:57.000Z</time>
      </trkpt>
      <trkpt lat="44.87702" lon="5.69003">
        <ele>484</ele>
        <time>2015-06-29T14:50:58.000Z</time>
      </trkpt>
      <trkpt lat="44.87703" lon="5.69011">
        <ele>484.1</ele>
        <time>2015-06-29T14:51:05.000Z</time>
      </trkpt>
      <trkpt lat="44.87705" lon="5.69017">
        <ele>484.2</ele>
        <time>2015-06-29T14:51:11.000Z</time>
      </trkpt>
      <trkpt lat="44.87706" lon="5.69024">
        <ele>484.3</ele>
        <time>2015-06-29T14:51:18.000Z</time>
      </trkpt>
      <trkpt lat="44.87705" lon="5.69029">
        <ele>484.4</ele>
        <time>2015-06-29T14:51:25.000Z</time>
      </trkpt>
      <trkpt lat="44.87702" lon="5.69031">
        <ele>484.4</ele>
        <time>2015-06-29T14:51:30.000Z</time>
      </trkpt>
      <trkpt lat="44.877" lon="5.69037">
        <ele>484.6</ele>
        <time>2015-06-29T14:51:35.000Z</time>
      </trkpt>
      <trkpt lat="44.877" lon="5.69038">
        <ele>484.6</ele>
        <time>2015-06-29T14:51:36.000Z</time>
      </trkpt>
      <trkpt lat="44.877" lon="5.69042">
        <ele>484.8</ele>
        <time>2015-06-29T14:51:39.000Z</time>
      </trkpt>
      <trkpt lat="44.87698" lon="5.69045">
        <ele>484.8</ele>
        <time>2015-06-29T14:51:43.000Z</time>
      </trkpt>
      <trkpt lat="44.87698" lon="5.69042">
        <ele>484.7</ele>
        <time>2015-06-29T14:51:47.000Z</time>
      </trkpt>
      <trkpt lat="44.87698" lon="5.69043">
        <ele>484.7</ele>
        <time>2015-06-29T14:51:51.000Z</time>
      </trkpt>
      <trkpt lat="44.87695" lon="5.69044">
        <ele>484.6</ele>
        <time>2015-06-29T14:51:55.000Z</time>
      </trkpt>
      <trkpt lat="44.87694" lon="5.69044">
        <ele>484.6</ele>
        <time>2015-06-29T14:52:00.000Z</time>
      </trkpt>
      <trkpt lat="44.87694" lon="5.69041">
        <ele>484.5</ele>
        <time>2015-06-29T14:52:06.000Z</time>
      </trkpt>
      <trkpt lat="44.87693" lon="5.69042">
        <ele>484.5</ele>
        <time>2015-06-29T14:52:11.000Z</time>
      </trkpt>
      <trkpt lat="44.87694" lon="5.69043">
        <ele>484.5</ele>
        <time>2015-06-29T14:52:17.000Z</time>
      </trkpt>
      <trkpt lat="44.87696" lon="5.69046">
        <ele>484.8</ele>
        <time>2015-06-29T14:52:20.000Z</time>
      </trkpt>
      <trkpt lat="44.87697" lon="5.69047">
        <ele>484.8</ele>
        <time>2015-06-29T14:52:23.000Z</time>
      </trkpt>
      <trkpt lat="44.87699" lon="5.6905">
        <ele>485.1</ele>
        <time>2015-06-29T14:52:45.000Z</time>
      </trkpt>
      <trkpt lat="44.87701" lon="5.69052">
        <ele>485.3</ele>
        <time>2015-06-29T14:52:50.000Z</time>
      </trkpt>
      <trkpt lat="44.87704" lon="5.69056">
        <ele>485.7</ele>
        <time>2015-06-29T14:52:56.000Z</time>
      </trkpt>
      <trkpt lat="44.87707" lon="5.6906">
        <ele>486.1</ele>
        <time>2015-06-29T14:53:03.000Z</time>
      </trkpt>
      <trkpt lat="44.87706" lon="5.69064">
        <ele>486.1</ele>
        <time>2015-06-29T14:53:10.000Z</time>
      </trkpt>
      <trkpt lat="44.87705" lon="5.69063">
        <ele>486</ele>
        <time>2015-06-29T14:53:16.000Z</time>
      </trkpt>
      <trkpt lat="44.87706" lon="5.69064">
        <ele>486.1</ele>
        <time>2015-06-29T14:53:24.000Z</time>
      </trkpt>
      <trkpt lat="44.87706" lon="5.69064">
        <ele>486.2</ele>
        <time>2015-06-29T14:53:29.000Z</time>
      </trkpt>
      <trkpt lat="44.87707" lon="5.69057">
        <ele>485.9</ele>
        <time>2015-06-29T14:53:34.000Z</time>
      </trkpt>
      <trkpt lat="44.87707" lon="5.69057">
        <ele>485.9</ele>
        <time>2015-06-29T14:53:41.000Z</time>
      </trkpt>
      <trkpt lat="44.87709" lon="5.69057">
        <ele>486.1</ele>
        <time>2015-06-29T14:53:45.000Z</time>
      </trkpt>
      <trkpt lat="44.8771" lon="5.69054">
        <ele>486.1</ele>
        <time>2015-06-29T14:53:47.000Z</time>
      </trkpt>
      <trkpt lat="44.87711" lon="5.69049">
        <ele>485.8</ele>
        <time>2015-06-29T14:53:50.000Z</time>
      </trkpt>
      <trkpt lat="44.87711" lon="5.6904">
        <ele>485.3</ele>
        <time>2015-06-29T14:53:55.000Z</time>
      </trkpt>
      <trkpt lat="44.87708" lon="5.69029">
        <ele>484.6</ele>
        <time>2015-06-29T14:54:01.000Z</time>
      </trkpt>
      <trkpt lat="44.87708" lon="5.69028">
        <ele>484.5</ele>
        <time>2015-06-29T14:54:02.000Z</time>
      </trkpt>
      <trkpt lat="44.87709" lon="5.69028">
        <ele>484.5</ele>
        <time>2015-06-29T14:54:05.000Z</time>
      </trkpt>
      <trkpt lat="44.87707" lon="5.69023">
        <ele>484.4</ele>
        <time>2015-06-29T14:54:09.000Z</time>
      </trkpt>
      <trkpt lat="44.87706" lon="5.69022">
        <ele>484.3</ele>
        <time>2015-06-29T14:54:10.000Z</time>
      </trkpt>
      <trkpt lat="44.87705" lon="5.6902">
        <ele>484.3</ele>
        <time>2015-06-29T14:54:13.000Z</time>
      </trkpt>
      <trkpt lat="44.87705" lon="5.6902">
        <ele>484.3</ele>
        <time>2015-06-29T14:54:15.000Z</time>
      </trkpt>
      <trkpt lat="44.87704" lon="5.69016">
        <ele>484.2</ele>
        <time>2015-06-29T14:54:20.000Z</time>
      </trkpt>
    </trkseg>
  </trk>
</gpx>